Wetterdaten: Samstag, 01.03.2008
Datum Zeit Temp. Innen Temp. Aussen Feuchte Inne Feuchte Auss Luftdruck Regen ab 0,1 Wind
01.03.2008 00:00 17,9 C 7,9 C 47 % 86 % 998,4 hPa 0,0 l/m 14,0 km/h (3 Bft)
01.03.2008 00:02 17,9 C 7,9 C 48 % 86 % 998,4 hPa 0,0 l/m 18,0 km/h (3 Bft)
01.03.2008 00:04 17,8 C 8,1 C 48 % 86 % 998,4 hPa 0,0 l/m 5,0 km/h (1 Bft)
01.03.2008 00:06 17,8 C 8,1 C 48 % 86 % 998,4 hPa 0,5 l/m 13,3 km/h (3 Bft)
01.03.2008 00:08 17,8 C 8,1 C 48 % 86 % 998,4 hPa 0,0 l/m 10,4 km/h (2 Bft)
01.03.2008 00:10 17,8 C 8,1 C 48 % 86 % 998,4 hPa 0,0 l/m 9,7 km/h (2 Bft)
01.03.2008 00:12 17,8 C 8,1 C 48 % 86 % 998,4 hPa 0,0 l/m 4,3 km/h (1 Bft)
01.03.2008 00:14 17,8 C 8,1 C 48 % 86 % 998,4 hPa 0,0 l/m 28,1 km/h (4 Bft)
01.03.2008 00:16 17,8 C 8,1 C 48 % 86 % 997,4 hPa 0,0 l/m 28,1 km/h (4 Bft)
01.03.2008 00:18 17,8 C 8,2 C 48 % 86 % 997,4 hPa 0,0 l/m 6,5 km/h (2 Bft)
01.03.2008 00:20 17,8 C 8,2 C 48 % 86 % 997,4 hPa 0,0 l/m 5,8 km/h (2 Bft)
01.03.2008 00:22 17,8 C 8,2 C 48 % 86 % 997,4 hPa 0,0 l/m 13,0 km/h (3 Bft)
01.03.2008 00:24 17,8 C 8,3 C 48 % 86 % 997,3 hPa 0,0 l/m 11,2 km/h (2 Bft)
01.03.2008 00:26 17,8 C 8,3 C 48 % 86 % 997,3 hPa 0,0 l/m 6,8 km/h (2 Bft)
01.03.2008 00:28 17,8 C 8,3 C 49 % 86 % 997,3 hPa 0,0 l/m 7,2 km/h (2 Bft)
01.03.2008 00:30 17,8 C 8,4 C 49 % 86 % 997,3 hPa 0,0 l/m 9,7 km/h (2 Bft)
01.03.2008 00:32 17,7 C 8,4 C 49 % 86 % 997,3 hPa 0,0 l/m 6,8 km/h (2 Bft)
01.03.2008 00:34 17,7 C 8,4 C 49 % 86 % 996,3 hPa 0,0 l/m 14,8 km/h (3 Bft)
01.03.2008 00:36 17,7 C 8,4 C 49 % 86 % 996,3 hPa 0,0 l/m 4,3 km/h (1 Bft)
01.03.2008 00:38 17,7 C 8,5 C 49 % 86 % 996,3 hPa 0,0 l/m 22,0 km/h (4 Bft)
01.03.2008 00:40 17,7 C 8,5 C 49 % 86 % 996,3 hPa 0,5 l/m 10,4 km/h (2 Bft)
01.03.2008 00:42 17,7 C 8,5 C 49 % 86 % 996,3 hPa 0,0 l/m 10,1 km/h (2 Bft)
01.03.2008 00:44 17,7 C 8,6 C 49 % 86 % 996,3 hPa 0,0 l/m 4,0 km/h (1 Bft)
01.03.2008 00:46 17,7 C 8,6 C 49 % 86 % 996,3 hPa 0,0 l/m 4,0 km/h (1 Bft)
01.03.2008 00:48 17,7 C 8,6 C 49 % 86 % 996,3 hPa 0,0 l/m 28,1 km/h (4 Bft)
01.03.2008 00:50 17,7 C 8,7 C 49 % 86 % 996,3 hPa 0,0 l/m 15,1 km/h (3 Bft)
01.03.2008 00:52 17,7 C 8,8 C 49 % 87 % 996,3 hPa 0,0 l/m 6,8 km/h (2 Bft)
01.03.2008 00:54 17,7 C 8,8 C 49 % 86 % 996,3 hPa 0,0 l/m 15,5 km/h (3 Bft)
01.03.2008 00:56 17,7 C 8,8 C 49 % 86 % 996,3 hPa 0,0 l/m 5,4 km/h (1 Bft)
01.03.2008 00:58 17,7 C 8,9 C 49 % 86 % 996,3 hPa 0,0 l/m 13,3 km/h (3 Bft)
01.03.2008 01:00 17,7 C 8,9 C 49 % 86 % 996,3 hPa 0,0 l/m 4,0 km/h (1 Bft)
01.03.2008 01:02 17,7 C 8,9 C 49 % 86 % 996,3 hPa 0,0 l/m 20,9 km/h (4 Bft)
01.03.2008 01:04 17,7 C 8,9 C 49 % 86 % 996,3 hPa 0,0 l/m 10,8 km/h (2 Bft)
01.03.2008 01:06 17,7 C 9,0 C 49 % 86 % 996,3 hPa 0,0 l/m 19,8 km/h (3 Bft)
01.03.2008 01:08 17,7 C 9,1 C 49 % 86 % 996,3 hPa 0,0 l/m 11,9 km/h (2 Bft)
01.03.2008 01:10 17,6 C 9,1 C 49 % 86 % 996,3 hPa 0,0 l/m 9,4 km/h (2 Bft)
01.03.2008 01:12 17,7 C 9,2 C 49 % 86 % 996,3 hPa 0,0 l/m 31,0 km/h (5 Bft)
01.03.2008 01:14 17,7 C 9,3 C 49 % 85 % 996,3 hPa 0,0 l/m 14,0 km/h (3 Bft)
01.03.2008 01:16 17,6 C 9,3 C 49 % 85 % 996,3 hPa 0,0 l/m 13,0 km/h (3 Bft)
01.03.2008 01:18 17,6 C 9,3 C 49 % 85 % 996,3 hPa 0,0 l/m 13,0 km/h (3 Bft)
01.03.2008 01:20 17,6 C 9,3 C 49 % 85 % 996,3 hPa 0,0 l/m 14,4 km/h (3 Bft)
01.03.2008 01:22 17,6 C 9,3 C 49 % 85 % 995,3 hPa 0,0 l/m 22,3 km/h (4 Bft)
01.03.2008 01:24 17,6 C 9,3 C 49 % 85 % 995,3 hPa 0,0 l/m 27,7 km/h (4 Bft)
01.03.2008 01:26 17,6 C 9,4 C 49 % 85 % 995,3 hPa 0,0 l/m 10,8 km/h (2 Bft)
01.03.2008 01:28 17,6 C 9,4 C 49 % 85 % 995,3 hPa 0,0 l/m 10,8 km/h (2 Bft)
01.03.2008 01:30 17,6 C 9,4 C 49 % 85 % 995,3 hPa 0,0 l/m 9,0 km/h (2 Bft)
01.03.2008 01:32 17,6 C 9,4 C 49 % 85 % 995,3 hPa 0,0 l/m 11,2 km/h (2 Bft)
01.03.2008 01:34 17,6 C 9,4 C 49 % 86 % 995,3 hPa 0,0 l/m 22,0 km/h (4 Bft)
01.03.2008 01:36 17,6 C 9,4 C 49 % 86 % 994,3 hPa 0,0 l/m 15,1 km/h (3 Bft)
01.03.2008 01:38 17,6 C 9,4 C 49 % 86 % 995,3 hPa 0,0 l/m 19,1 km/h (3 Bft)
01.03.2008 01:40 17,6 C 9,4 C 49 % 86 % 994,3 hPa 0,0 l/m 5,0 km/h (1 Bft)
01.03.2008 01:42 17,6 C 9,4 C 49 % 86 % 994,3 hPa 0,0 l/m 19,4 km/h (3 Bft)
01.03.2008 01:44 17,6 C 9,5 C 49 % 86 % 994,3 hPa 0,0 l/m 12,6 km/h (3 Bft)
01.03.2008 01:46 17,6 C 9,5 C 49 % 86 % 994,3 hPa 0,0 l/m 4,7 km/h (1 Bft)
01.03.2008 01:48 17,6 C 9,5 C 49 % 86 % 994,3 hPa 0,0 l/m 4,7 km/h (1 Bft)
01.03.2008 01:50 17,6 C 9,5 C 49 % 86 % 994,3 hPa 0,0 l/m 12,6 km/h (3 Bft)
01.03.2008 01:52 17,6 C 9,5 C 49 % 86 % 994,3 hPa 0,0 l/m 12,2 km/h (2 Bft)
01.03.2008 01:54 17,6 C 9,5 C 49 % 86 % 994,3 hPa 0,0 l/m 16,9 km/h (3 Bft)
01.03.2008 01:56 17,6 C 9,6 C 50 % 86 % 994,3 hPa 0,0 l/m 10,4 km/h (2 Bft)
01.03.2008 01:58 17,6 C 9,6 C 50 % 86 % 994,3 hPa 0,0 l/m 6,1 km/h (2 Bft)
01.03.2008 02:00 17,6 C 9,6 C 50 % 86 % 994,3 hPa 0,0 l/m 6,1 km/h (2 Bft)
01.03.2008 02:02 17,6 C 9,6 C 50 % 86 % 994,3 hPa 0,0 l/m 6,1 km/h (2 Bft)
01.03.2008 02:04 17,6 C 9,7 C 50 % 85 % 994,3 hPa 0,0 l/m 13,7 km/h (3 Bft)
01.03.2008 02:06 17,6 C 9,8 C 50 % 85 % 994,3 hPa 0,0 l/m 10,1 km/h (2 Bft)
01.03.2008 02:08 17,6 C 9,8 C 50 % 85 % 994,3 hPa 0,0 l/m 9,7 km/h (2 Bft)
01.03.2008 02:10 17,6 C 9,8 C 50 % 85 % 994,3 hPa 0,0 l/m 4,3 km/h (1 Bft)
01.03.2008 02:12 17,6 C 9,8 C 50 % 85 % 994,3 hPa 0,0 l/m 16,2 km/h (3 Bft)
01.03.2008 02:14 17,6 C 9,8 C 50 % 85 % 994,3 hPa 0,0 l/m 10,1 km/h (2 Bft)
01.03.2008 02:16 17,6 C 9,8 C 50 % 85 % 994,3 hPa 0,0 l/m 15,5 km/h (3 Bft)
01.03.2008 02:18 17,6 C 9,8 C 50 % 85 % 994,3 hPa 0,0 l/m 15,5 km/h (3 Bft)
01.03.2008 02:20 17,6 C 9,8 C 50 % 86 % 994,3 hPa 0,0 l/m 15,5 km/h (3 Bft)
01.03.2008 02:22 17,6 C 9,8 C 50 % 86 % 994,3 hPa 0,0 l/m 10,4 km/h (2 Bft)
01.03.2008 02:24 17,6 C 9,8 C 50 % 86 % 994,3 hPa 0,0 l/m 12,6 km/h (3 Bft)
01.03.2008 02:26 17,6 C 9,7 C 50 % 86 % 993,3 hPa 0,0 l/m 12,6 km/h (3 Bft)
01.03.2008 02:28 17,6 C 9,7 C 50 % 86 % 993,3 hPa 0,0 l/m 9,4 km/h (2 Bft)
01.03.2008 02:30 17,6 C 9,6 C 50 % 86 % 993,3 hPa 0,0 l/m 12,2 km/h (2 Bft)
01.03.2008 02:32 17,6 C 9,6 C 50 % 86 % 993,3 hPa 0,0 l/m 24,8 km/h (4 Bft)
01.03.2008 02:34 17,6 C 9,6 C 50 % 86 % 993,3 hPa 0,0 l/m 16,9 km/h (3 Bft)
01.03.2008 02:36 17,6 C 9,6 C 50 % 86 % 993,3 hPa 0,0 l/m 11,2 km/h (2 Bft)
01.03.2008 02:38 17,6 C 9,6 C 50 % 87 % 993,3 hPa 0,0 l/m 15,1 km/h (3 Bft)
01.03.2008 02:40 17,6 C 9,6 C 50 % 87 % 993,3 hPa 0,0 l/m 6,8 km/h (2 Bft)
01.03.2008 02:42 17,6 C 9,6 C 50 % 87 % 993,3 hPa 0,0 l/m 11,2 km/h (2 Bft)
01.03.2008 02:44 17,6 C 9,6 C 50 % 87 % 993,3 hPa 0,0 l/m 18,0 km/h (3 Bft)
01.03.2008 02:46 17,6 C 9,6 C 50 % 87 % 993,3 hPa 0,0 l/m 14,4 km/h (3 Bft)
01.03.2008 02:48 17,6 C 9,6 C 50 % 87 % 993,3 hPa 0,0 l/m 14,4 km/h (3 Bft)
01.03.2008 02:50 17,6 C 9,6 C 50 % 87 % 992,3 hPa 0,0 l/m 2,9 km/h (1 Bft)
01.03.2008 02:52 17,6 C 9,6 C 50 % 87 % 993,3 hPa 0,0 l/m 6,1 km/h (2 Bft)
01.03.2008 02:54 17,6 C 9,6 C 50 % 87 % 992,3 hPa 0,0 l/m 18,0 km/h (3 Bft)
01.03.2008 02:56 17,5 C 9,6 C 50 % 87 % 992,3 hPa 0,0 l/m 0,4 km/h (0 Bft)
01.03.2008 02:58 17,6 C 9,6 C 50 % 87 % 992,3 hPa 0,5 l/m 7,2 km/h (2 Bft)
01.03.2008 03:00 17,5 C 9,6 C 50 % 87 % 992,3 hPa 0,0 l/m 13,0 km/h (3 Bft)
01.03.2008 03:02 17,5 C 9,6 C 50 % 87 % 992,3 hPa 0,0 l/m 7,6 km/h (2 Bft)
01.03.2008 03:04 17,5 C 9,6 C 50 % 87 % 992,3 hPa 0,0 l/m 8,6 km/h (2 Bft)
01.03.2008 03:06 17,5 C 9,6 C 50 % 87 % 992,3 hPa 0,0 l/m 23,0 km/h (4 Bft)
01.03.2008 03:08 17,6 C 9,6 C 50 % 87 % 992,3 hPa 0,0 l/m 10,1 km/h (2 Bft)
01.03.2008 03:10 17,5 C 9,6 C 50 % 87 % 992,3 hPa 0,0 l/m 2,9 km/h (1 Bft)
01.03.2008 03:12 17,5 C 9,6 C 50 % 87 % 992,3 hPa 0,0 l/m 12,2 km/h (2 Bft)
01.03.2008 03:14 17,5 C 9,6 C 50 % 87 % 992,3 hPa 0,0 l/m 12,6 km/h (3 Bft)
01.03.2008 03:16 17,5 C 9,6 C 50 % 87 % 992,3 hPa 0,0 l/m 9,4 km/h (2 Bft)
01.03.2008 03:18 17,5 C 9,6 C 50 % 87 % 992,3 hPa 0,0 l/m 9,4 km/h (2 Bft)
01.03.2008 03:20 17,5 C 9,6 C 50 % 87 % 992,3 hPa 0,0 l/m 10,1 km/h (2 Bft)
01.03.2008 03:22 17,5 C 9,7 C 50 % 87 % 992,3 hPa 0,0 l/m 9,7 km/h (2 Bft)
01.03.2008 03:24 17,5 C 9,7 C 51 % 87 % 992,3 hPa 0,0 l/m 4,0 km/h (1 Bft)
01.03.2008 03:26 17,5 C 9,8 C 51 % 87 % 992,3 hPa 0,0 l/m 13,0 km/h (3 Bft)
01.03.2008 03:28 17,5 C 9,8 C 51 % 87 % 992,3 hPa 0,0 l/m 23,0 km/h (4 Bft)
01.03.2008 03:30 17,5 C 9,8 C 51 % 87 % 991,3 hPa 0,0 l/m 16,6 km/h (3 Bft)
01.03.2008 03:32 17,5 C 9,8 C 51 % 87 % 991,3 hPa 0,5 l/m 7,9 km/h (2 Bft)
01.03.2008 03:34 17,5 C 9,8 C 51 % 87 % 991,3 hPa 0,0 l/m 10,4 km/h (2 Bft)
01.03.2008 03:36 17,5 C 9,8 C 51 % 87 % 991,3 hPa 0,0 l/m 10,1 km/h (2 Bft)
01.03.2008 03:38 17,5 C 9,8 C 51 % 87 % 991,3 hPa 0,0 l/m 5,8 km/h (2 Bft)
01.03.2008 03:40 17,5 C 9,8 C 51 % 88 % 991,3 hPa 0,0 l/m 8,3 km/h (2 Bft)
01.03.2008 03:42 17,5 C 9,8 C 51 % 88 % 991,3 hPa 0,0 l/m 25,6 km/h (4 Bft)
01.03.2008 03:44 17,5 C 9,8 C 51 % 88 % 991,3 hPa 0,0 l/m 10,4 km/h (2 Bft)
01.03.2008 03:46 17,5 C 9,8 C 51 % 88 % 991,3 hPa 0,0 l/m 9,7 km/h (2 Bft)
01.03.2008 03:48 17,5 C 9,8 C 51 % 88 % 991,3 hPa 0,0 l/m 9,7 km/h (2 Bft)
01.03.2008 03:50 17,5 C 9,8 C 51 % 88 % 991,3 hPa 0,0 l/m 10,4 km/h (2 Bft)
01.03.2008 03:52 17,5 C 9,8 C 51 % 88 % 991,3 hPa 0,0 l/m 8,3 km/h (2 Bft)
01.03.2008 03:54 17,5 C 9,9 C 51 % 88 % 991,3 hPa 0,0 l/m 8,3 km/h (2 Bft)
01.03.2008 03:56 17,5 C 9,9 C 51 % 88 % 990,3 hPa 0,0 l/m 9,7 km/h (2 Bft)
01.03.2008 03:58 17,5 C 9,9 C 51 % 88 % 990,3 hPa 0,0 l/m 6,5 km/h (2 Bft)
01.03.2008 04:00 17,5 C 9,9 C 51 % 88 % 990,3 hPa 0,0 l/m 8,6 km/h (2 Bft)
01.03.2008 04:02 17,5 C 9,9 C 51 % 88 % 990,3 hPa 0,0 l/m 9,7 km/h (2 Bft)
01.03.2008 04:04 17,5 C 10,0 C 51 % 88 % 990,3 hPa 0,0 l/m 15,5 km/h (3 Bft)
01.03.2008 04:06 17,5 C 10,1 C 51 % 88 % 990,3 hPa 0,0 l/m 7,9 km/h (2 Bft)
01.03.2008 04:08 17,5 C 10,1 C 51 % 88 % 990,3 hPa 0,0 l/m 1,8 km/h (1 Bft)
01.03.2008 04:10 17,5 C 10,1 C 51 % 88 % 990,3 hPa 0,0 l/m 22,3 km/h (4 Bft)
01.03.2008 04:12 17,5 C 10,1 C 51 % 87 % 990,3 hPa 0,0 l/m 20,2 km/h (4 Bft)
01.03.2008 04:14 17,5 C 10,2 C 51 % 87 % 990,3 hPa 0,0 l/m 4,0 km/h (1 Bft)
01.03.2008 04:16 17,5 C 10,2 C 51 % 87 % 990,3 hPa 0,0 l/m 12,2 km/h (2 Bft)
01.03.2008 04:18 17,5 C 10,2 C 51 % 87 % 990,3 hPa 0,0 l/m 12,2 km/h (2 Bft)
01.03.2008 04:20 17,5 C 10,2 C 51 % 87 % 990,3 hPa 0,0 l/m 17,6 km/h (3 Bft)
01.03.2008 04:22 17,5 C 10,3 C 51 % 87 % 990,3 hPa 0,0 l/m 16,2 km/h (3 Bft)
01.03.2008 04:24 17,5 C 10,3 C 51 % 87 % 989,3 hPa 0,0 l/m 7,6 km/h (2 Bft)
01.03.2008 04:26 17,5 C 10,3 C 51 % 87 % 989,3 hPa 0,0 l/m 14,0 km/h (3 Bft)
01.03.2008 04:28 17,5 C 10,3 C 51 % 87 % 989,3 hPa 0,0 l/m 17,6 km/h (3 Bft)
01.03.2008 04:30 17,5 C 10,3 C 51 % 87 % 989,3 hPa 0,0 l/m 20,9 km/h (4 Bft)
01.03.2008 04:32 17,5 C 10,4 C 51 % 87 % 989,3 hPa 0,0 l/m 4,7 km/h (1 Bft)
01.03.2008 04:34 17,5 C 10,4 C 51 % 87 % 989,3 hPa 0,0 l/m 7,2 km/h (2 Bft)
01.03.2008 04:36 17,5 C 10,4 C 51 % 87 % 989,3 hPa 0,0 l/m 22,7 km/h (4 Bft)
01.03.2008 04:38 17,5 C 10,4 C 51 % 86 % 989,3 hPa 0,0 l/m 16,9 km/h (3 Bft)
01.03.2008 04:40 17,5 C 10,4 C 51 % 86 % 989,3 hPa 0,0 l/m 9,7 km/h (2 Bft)
01.03.2008 04:42 17,5 C 10,4 C 51 % 86 % 989,3 hPa 0,0 l/m 18,4 km/h (3 Bft)
01.03.2008 04:44 17,5 C 10,5 C 51 % 86 % 989,3 hPa 0,0 l/m 17,6 km/h (3 Bft)
01.03.2008 04:46 17,5 C 10,5 C 51 % 86 % 989,3 hPa 0,0 l/m 19,4 km/h (3 Bft)
01.03.2008 04:48 17,5 C 10,5 C 51 % 86 % 989,3 hPa 0,0 l/m 19,4 km/h (3 Bft)
01.03.2008 04:50 17,4 C 10,5 C 51 % 86 % 989,3 hPa 0,5 l/m 13,3 km/h (3 Bft)
01.03.2008 04:52 17,5 C 10,5 C 51 % 86 % 989,3 hPa 0,0 l/m 23,4 km/h (4 Bft)
01.03.2008 04:54 17,5 C 10,5 C 51 % 86 % 989,3 hPa 0,0 l/m 15,5 km/h (3 Bft)
01.03.2008 04:56 17,5 C 10,5 C 51 % 86 % 989,3 hPa 0,0 l/m 18,0 km/h (3 Bft)
01.03.2008 04:58 17,5 C 10,5 C 51 % 86 % 989,3 hPa 0,0 l/m 25,9 km/h (4 Bft)
01.03.2008 05:00 17,5 C 10,6 C 51 % 85 % 989,3 hPa 0,0 l/m 22,3 km/h (4 Bft)
01.03.2008 05:02 17,5 C 10,6 C 51 % 85 % 991,3 hPa 0,0 l/m 3,6 km/h (1 Bft)
01.03.2008 05:04 17,4 C 10,4 C 51 % 83 % 992,3 hPa 0,0 l/m 8,6 km/h (2 Bft)
01.03.2008 05:06 17,5 C 9,9 C 51 % 77 % 991,3 hPa 0,0 l/m 10,4 km/h (2 Bft)
01.03.2008 05:08 17,5 C 9,3 C 51 % 76 % 991,3 hPa 0,0 l/m 7,9 km/h (2 Bft)
01.03.2008 05:10 17,5 C 8,6 C 51 % 76 % 991,3 hPa 0,0 l/m 15,5 km/h (3 Bft)
01.03.2008 05:12 17,5 C 8,6 C 51 % 76 % 991,3 hPa 0,5 l/m 15,5 km/h (3 Bft)
01.03.2008 05:14 17,5 C 8,1 C 51 % 77 % 991,3 hPa 0,5 l/m 1,1 km/h (1 Bft)
01.03.2008 05:16 17,5 C 7,6 C 51 % 78 % 991,3 hPa 0,0 l/m 10,4 km/h (2 Bft)
01.03.2008 05:18 17,5 C 7,2 C 51 % 79 % 990,3 hPa 0,0 l/m 8,6 km/h (2 Bft)
01.03.2008 05:20 17,5 C 6,9 C 51 % 80 % 991,3 hPa 0,0 l/m 18,4 km/h (3 Bft)
01.03.2008 05:22 17,5 C 6,7 C 51 % 81 % 991,3 hPa 0,5 l/m 22,3 km/h (4 Bft)
01.03.2008 05:24 17,5 C 6,5 C 51 % 82 % 991,4 hPa 0,0 l/m 6,1 km/h (2 Bft)
01.03.2008 05:26 17,5 C 6,4 C 51 % 82 % 991,4 hPa 0,0 l/m 11,9 km/h (2 Bft)
01.03.2008 05:28 17,5 C 6,3 C 51 % 83 % 991,4 hPa 0,0 l/m 10,1 km/h (2 Bft)
01.03.2008 05:30 17,5 C 6,3 C 51 % 83 % 991,4 hPa 0,5 l/m 9,0 km/h (2 Bft)
01.03.2008 05:32 17,5 C 6,3 C 51 % 84 % 991,4 hPa 0,0 l/m 3,6 km/h (1 Bft)
01.03.2008 05:34 17,5 C 6,3 C 51 % 84 % 991,4 hPa 0,0 l/m 6,8 km/h (2 Bft)
01.03.2008 05:36 17,5 C 6,3 C 51 % 84 % 991,4 hPa 0,0 l/m 13,7 km/h (3 Bft)
01.03.2008 05:38 17,5 C 6,4 C 51 % 84 % 991,4 hPa 0,5 l/m 9,0 km/h (2 Bft)
01.03.2008 05:40 17,5 C 6,4 C 50 % 84 % 991,4 hPa 0,0 l/m 0,7 km/h (0 Bft)
01.03.2008 05:42 17,5 C 6,4 C 50 % 84 % 991,4 hPa 0,0 l/m 0,7 km/h (0 Bft)
01.03.2008 05:44 17,5 C 6,4 C 50 % 84 % 991,4 hPa 0,0 l/m 20,5 km/h (4 Bft)
01.03.2008 05:46 17,5 C 6,5 C 50 % 85 % 991,4 hPa 0,0 l/m 11,5 km/h (2 Bft)
01.03.2008 05:48 17,5 C 6,6 C 50 % 84 % 992,4 hPa 0,0 l/m 10,4 km/h (2 Bft)
01.03.2008 05:50 17,5 C 6,6 C 50 % 84 % 992,4 hPa 0,0 l/m 4,7 km/h (1 Bft)
01.03.2008 05:52 17,5 C 6,7 C 50 % 84 % 992,4 hPa 0,0 l/m 20,5 km/h (4 Bft)
01.03.2008 05:54 17,5 C 6,8 C 50 % 84 % 992,4 hPa 0,0 l/m 1,1 km/h (1 Bft)
01.03.2008 05:56 17,5 C 6,8 C 50 % 83 % 992,4 hPa 0,0 l/m 11,5 km/h (2 Bft)
01.03.2008 05:58 17,5 C 6,9 C 50 % 83 % 992,3 hPa 0,0 l/m 6,8 km/h (2 Bft)
01.03.2008 06:00 17,5 C 6,9 C 50 % 83 % 992,3 hPa 0,0 l/m 13,0 km/h (3 Bft)
01.03.2008 06:02 17,5 C 6,9 C 50 % 83 % 992,3 hPa 0,0 l/m 8,6 km/h (2 Bft)
01.03.2008 06:04 17,5 C 6,9 C 50 % 82 % 992,3 hPa 0,0 l/m 16,6 km/h (3 Bft)
01.03.2008 06:06 17,5 C 6,9 C 50 % 82 % 992,3 hPa 0,0 l/m 4,3 km/h (1 Bft)
01.03.2008 06:08 17,5 C 6,9 C 50 % 82 % 992,3 hPa 0,0 l/m 4,0 km/h (1 Bft)
01.03.2008 06:10 17,5 C 6,9 C 50 % 82 % 992,3 hPa 0,0 l/m 5,4 km/h (1 Bft)
01.03.2008 06:12 17,5 C 6,9 C 50 % 82 % 992,3 hPa 0,0 l/m 5,4 km/h (1 Bft)
01.03.2008 06:14 17,5 C 6,9 C 50 % 82 % 992,3 hPa 0,0 l/m 3,2 km/h (1 Bft)
01.03.2008 06:16 17,5 C 7,0 C 50 % 82 % 992,3 hPa 0,0 l/m 10,4 km/h (2 Bft)
01.03.2008 06:18 17,5 C 7,0 C 50 % 81 % 991,3 hPa 0,0 l/m 12,6 km/h (3 Bft)
01.03.2008 06:20 17,5 C 7,1 C 50 % 81 % 991,3 hPa 0,0 l/m 4,0 km/h (1 Bft)
01.03.2008 06:22 17,5 C 7,1 C 50 % 81 % 991,3 hPa 0,0 l/m 6,1 km/h (2 Bft)
01.03.2008 06:24 17,5 C 7,1 C 50 % 81 % 991,3 hPa 0,0 l/m 11,5 km/h (2 Bft)
01.03.2008 06:26 17,5 C 7,1 C 50 % 81 % 991,3 hPa 0,0 l/m 7,6 km/h (2 Bft)
01.03.2008 06:28 17,5 C 7,2 C 50 % 80 % 992,3 hPa 0,0 l/m 12,6 km/h (3 Bft)
01.03.2008 06:30 17,5 C 7,2 C 50 % 79 % 992,3 hPa 0,0 l/m 13,7 km/h (3 Bft)
01.03.2008 06:32 17,5 C 7,2 C 50 % 79 % 992,3 hPa 0,0 l/m 5,0 km/h (1 Bft)
01.03.2008 06:34 17,4 C 7,3 C 50 % 79 % 992,3 hPa 0,0 l/m 13,7 km/h (3 Bft)
01.03.2008 06:36 17,5 C 7,4 C 50 % 79 % 992,3 hPa 0,0 l/m 3,2 km/h (1 Bft)
01.03.2008 06:38 17,5 C 7,4 C 50 % 78 % 992,3 hPa 0,0 l/m 10,4 km/h (2 Bft)
01.03.2008 06:40 17,5 C 7,5 C 50 % 78 % 992,3 hPa 0,0 l/m 15,1 km/h (3 Bft)
01.03.2008 06:42 17,4 C 7,5 C 50 % 78 % 992,3 hPa 0,0 l/m 15,1 km/h (3 Bft)
01.03.2008 06:44 17,5 C 7,6 C 50 % 79 % 992,3 hPa 0,0 l/m 19,1 km/h (3 Bft)
01.03.2008 06:46 17,5 C 7,6 C 49 % 78 % 992,3 hPa 0,0 l/m 7,9 km/h (2 Bft)
01.03.2008 06:48 17,5 C 7,6 C 49 % 78 % 992,3 hPa 0,0 l/m 7,2 km/h (2 Bft)
01.03.2008 06:50 17,5 C 7,6 C 49 % 79 % 992,3 hPa 0,0 l/m 3,6 km/h (1 Bft)
01.03.2008 06:52 17,4 C 7,7 C 49 % 79 % 992,3 hPa 0,0 l/m 8,3 km/h (2 Bft)
01.03.2008 06:54 17,5 C 7,8 C 49 % 79 % 992,3 hPa 0,0 l/m 6,8 km/h (2 Bft)
01.03.2008 06:56 17,4 C 7,8 C 49 % 79 % 992,3 hPa 0,0 l/m 17,6 km/h (3 Bft)
01.03.2008 06:58 17,4 C 7,8 C 49 % 79 % 992,3 hPa 0,0 l/m 12,6 km/h (3 Bft)
01.03.2008 07:00 17,4 C 7,8 C 49 % 79 % 992,3 hPa 0,0 l/m 7,2 km/h (2 Bft)
01.03.2008 07:02 17,4 C 7,8 C 49 % 79 % 992,3 hPa 0,0 l/m 11,2 km/h (2 Bft)
01.03.2008 07:04 17,5 C 7,9 C 49 % 79 % 992,3 hPa 0,0 l/m 3,6 km/h (1 Bft)
01.03.2008 07:06 17,4 C 7,9 C 49 % 78 % 992,3 hPa 0,0 l/m 26,6 km/h (4 Bft)
01.03.2008 07:08 17,4 C 7,9 C 49 % 78 % 993,3 hPa 0,0 l/m 15,5 km/h (3 Bft)
01.03.2008 07:10 17,4 C 7,9 C 49 % 78 % 993,3 hPa 0,0 l/m 14,0 km/h (3 Bft)
01.03.2008 07:12 17,4 C 7,9 C 49 % 78 % 993,3 hPa 0,0 l/m 14,0 km/h (3 Bft)
01.03.2008 07:14 17,4 C 7,9 C 49 % 78 % 993,3 hPa 0,0 l/m 15,5 km/h (3 Bft)
01.03.2008 07:16 17,4 C 7,9 C 49 % 78 % 993,3 hPa 0,0 l/m 14,8 km/h (3 Bft)
01.03.2008 07:18 17,4 C 8,0 C 50 % 78 % 993,3 hPa 0,0 l/m 6,1 km/h (2 Bft)
01.03.2008 07:20 17,5 C 8,1 C 50 % 77 % 993,3 hPa 0,0 l/m 17,3 km/h (3 Bft)
01.03.2008 07:22 17,5 C 8,1 C 50 % 77 % 993,3 hPa 0,0 l/m 9,0 km/h (2 Bft)
01.03.2008 07:24 17,5 C 8,1 C 50 % 76 % 993,3 hPa 0,0 l/m 29,5 km/h (5 Bft)
01.03.2008 07:26 17,5 C 8,1 C 50 % 76 % 994,3 hPa 0,0 l/m 12,6 km/h (3 Bft)
01.03.2008 07:28 17,6 C 8,1 C 50 % 75 % 993,3 hPa 0,0 l/m 10,4 km/h (2 Bft)
01.03.2008 07:30 17,6 C 8,2 C 50 % 74 % 993,3 hPa 0,0 l/m 6,1 km/h (2 Bft)
01.03.2008 07:32 17,6 C 8,2 C 50 % 74 % 994,3 hPa 0,0 l/m 5,8 km/h (2 Bft)
01.03.2008 07:34 17,6 C 8,2 C 50 % 73 % 994,3 hPa 0,0 l/m 10,4 km/h (2 Bft)
01.03.2008 07:36 17,7 C 8,2 C 50 % 73 % 994,3 hPa 0,0 l/m 13,3 km/h (3 Bft)
01.03.2008 07:38 17,7 C 8,2 C 50 % 73 % 994,3 hPa 0,0 l/m 1,1 km/h (1 Bft)
01.03.2008 07:40 17,8 C 8,3 C 49 % 72 % 994,3 hPa 0,0 l/m 11,9 km/h (2 Bft)
01.03.2008 07:42 17,8 C 8,3 C 50 % 72 % 994,3 hPa 0,0 l/m 11,9 km/h (2 Bft)
01.03.2008 07:44 17,8 C 8,3 C 49 % 72 % 994,3 hPa 0,0 l/m 17,3 km/h (3 Bft)
01.03.2008 07:46 17,9 C 8,4 C 49 % 73 % 994,3 hPa 0,0 l/m 7,6 km/h (2 Bft)
01.03.2008 07:48 17,9 C 8,4 C 49 % 73 % 994,3 hPa 0,0 l/m 18,4 km/h (3 Bft)
01.03.2008 07:50 18,0 C 8,4 C 49 % 73 % 994,3 hPa 0,0 l/m 14,4 km/h (3 Bft)
01.03.2008 07:52 18,0 C 8,4 C 49 % 73 % 994,3 hPa 0,0 l/m 11,2 km/h (2 Bft)
01.03.2008 07:54 18,0 C 8,4 C 49 % 74 % 994,3 hPa 0,0 l/m 11,9 km/h (2 Bft)
01.03.2008 07:56 18,0 C 8,4 C 49 % 74 % 994,3 hPa 0,0 l/m 6,1 km/h (2 Bft)
01.03.2008 07:58 18,0 C 8,4 C 49 % 74 % 994,3 hPa 0,0 l/m 0,0 km/h (0 Bft)
01.03.2008 08:00 18,0 C 8,4 C 49 % 74 % 994,3 hPa 0,0 l/m 12,2 km/h (2 Bft)
01.03.2008 08:02 18,0 C 8,5 C 49 % 74 % 994,3 hPa 0,0 l/m 9,0 km/h (2 Bft)
01.03.2008 08:04 18,0 C 8,4 C 49 % 74 % 994,3 hPa 0,0 l/m 11,2 km/h (2 Bft)
01.03.2008 08:06 18,0 C 8,5 C 49 % 74 % 994,3 hPa 0,0 l/m 18,4 km/h (3 Bft)
01.03.2008 08:08 18,1 C 8,5 C 49 % 73 % 994,3 hPa 0,0 l/m 6,1 km/h (2 Bft)
01.03.2008 08:10 18,1 C 8,5 C 49 % 73 % 994,3 hPa 0,0 l/m 13,3 km/h (3 Bft)
01.03.2008 08:12 18,1 C 8,5 C 49 % 73 % 994,3 hPa 0,0 l/m 13,3 km/h (3 Bft)
01.03.2008 08:14 18,1 C 8,5 C 49 % 72 % 995,3 hPa 0,0 l/m 9,4 km/h (2 Bft)
01.03.2008 08:16 18,1 C 8,5 C 49 % 72 % 995,3 hPa 0,0 l/m 15,1 km/h (3 Bft)
01.03.2008 08:18 18,2 C 8,6 C 49 % 72 % 995,3 hPa 0,0 l/m 25,6 km/h (4 Bft)
01.03.2008 08:20 18,2 C 8,6 C 48 % 71 % 995,3 hPa 0,0 l/m 0,0 km/h (0 Bft)
01.03.2008 08:22 18,2 C 8,6 C 48 % 71 % 995,3 hPa 0,0 l/m 18,4 km/h (3 Bft)
01.03.2008 08:24 18,2 C 8,6 C 48 % 70 % 995,3 hPa 0,0 l/m 20,9 km/h (4 Bft)
01.03.2008 08:26 18,2 C 8,6 C 48 % 67 % 995,3 hPa 0,0 l/m 3,2 km/h (1 Bft)
01.03.2008 08:28 18,2 C 8,6 C 48 % 66 % 995,3 hPa 0,0 l/m 27,4 km/h (4 Bft)
01.03.2008 08:30 18,2 C 8,6 C 48 % 66 % 995,3 hPa 0,0 l/m 10,4 km/h (2 Bft)
01.03.2008 08:32 18,2 C 8,7 C 48 % 65 % 995,3 hPa 0,0 l/m 10,4 km/h (2 Bft)
01.03.2008 08:34 18,2 C 8,7 C 48 % 65 % 996,3 hPa 0,0 l/m 12,6 km/h (3 Bft)
01.03.2008 08:36 18,2 C 8,7 C 48 % 66 % 996,3 hPa 0,0 l/m 1,8 km/h (1 Bft)
01.03.2008 08:38 18,2 C 8,7 C 48 % 66 % 996,3 hPa 0,0 l/m 9,0 km/h (2 Bft)
01.03.2008 08:40 18,3 C 8,6 C 48 % 67 % 996,3 hPa 0,0 l/m 2,9 km/h (1 Bft)
01.03.2008 08:42 18,3 C 8,6 C 48 % 67 % 996,3 hPa 0,0 l/m 2,9 km/h (1 Bft)
01.03.2008 08:44 18,3 C 8,6 C 48 % 67 % 996,3 hPa 0,0 l/m 16,9 km/h (3 Bft)
01.03.2008 08:46 18,3 C 8,6 C 47 % 67 % 996,3 hPa 0,0 l/m 2,5 km/h (1 Bft)
01.03.2008 08:48 18,3 C 8,6 C 47 % 67 % 996,3 hPa 0,0 l/m 36,0 km/h (5 Bft)
01.03.2008 08:50 18,3 C 8,6 C 47 % 68 % 996,3 hPa 0,0 l/m 13,0 km/h (3 Bft)
01.03.2008 08:52 18,3 C 8,6 C 47 % 68 % 996,3 hPa 0,0 l/m 5,4 km/h (1 Bft)
01.03.2008 08:54 18,3 C 8,5 C 47 % 68 % 996,3 hPa 0,0 l/m 10,4 km/h (2 Bft)
01.03.2008 08:56 18,3 C 8,5 C 47 % 68 % 996,3 hPa 0,0 l/m 24,8 km/h (4 Bft)
01.03.2008 08:58 18,3 C 8,5 C 47 % 67 % 996,3 hPa 0,0 l/m 19,8 km/h (3 Bft)
01.03.2008 09:00 18,4 C 8,5 C 47 % 67 % 996,3 hPa 0,0 l/m 15,8 km/h (3 Bft)
01.03.2008 09:02 18,4 C 8,6 C 47 % 67 % 996,3 hPa 0,0 l/m 5,4 km/h (1 Bft)
01.03.2008 09:04 18,4 C 8,5 C 47 % 68 % 996,3 hPa 0,0 l/m 6,1 km/h (2 Bft)
01.03.2008 09:06 18,4 C 8,5 C 47 % 68 % 996,3 hPa 0,0 l/m 7,6 km/h (2 Bft)
01.03.2008 09:08 18,4 C 8,5 C 47 % 68 % 997,3 hPa 0,0 l/m 12,6 km/h (3 Bft)
01.03.2008 09:10 18,4 C 8,5 C 47 % 68 % 997,3 hPa 0,0 l/m 16,2 km/h (3 Bft)
01.03.2008 09:12 18,4 C 8,5 C 47 % 68 % 997,3 hPa 0,0 l/m 0,0 km/h (0 Bft)
01.03.2008 09:14 18,4 C 8,5 C 47 % 68 % 997,3 hPa 0,0 l/m 0,0 km/h (0 Bft)
01.03.2008 09:16 18,4 C 8,5 C 47 % 68 % 997,3 hPa 0,0 l/m 1,1 km/h (1 Bft)
01.03.2008 09:18 18,4 C 8,5 C 47 % 68 % 997,3 hPa 0,0 l/m 21,6 km/h (4 Bft)
01.03.2008 09:20 18,4 C 8,4 C 47 % 68 % 997,3 hPa 0,0 l/m 9,7 km/h (2 Bft)
01.03.2008 09:22 18,4 C 8,5 C 46 % 68 % 997,3 hPa 0,0 l/m 5,0 km/h (1 Bft)
01.03.2008 09:24 18,4 C 8,5 C 46 % 67 % 997,3 hPa 0,0 l/m 20,2 km/h (4 Bft)
01.03.2008 09:26 18,4 C 8,5 C 46 % 67 % 997,3 hPa 0,0 l/m 14,8 km/h (3 Bft)
01.03.2008 09:28 18,4 C 8,5 C 46 % 67 % 997,3 hPa 0,0 l/m 5,8 km/h (2 Bft)
01.03.2008 09:30 18,4 C 8,5 C 46 % 67 % 997,3 hPa 0,0 l/m 9,0 km/h (2 Bft)
01.03.2008 09:32 18,4 C 8,4 C 46 % 67 % 997,3 hPa 0,0 l/m 0,0 km/h (0 Bft)
01.03.2008 09:34 18,4 C 8,5 C 46 % 67 % 997,3 hPa 0,0 l/m 13,0 km/h (3 Bft)
01.03.2008 09:36 18,4 C 8,5 C 46 % 67 % 997,3 hPa 0,0 l/m 10,1 km/h (2 Bft)
01.03.2008 09:38 18,4 C 8,4 C 46 % 67 % 997,3 hPa 0,0 l/m 2,2 km/h (1 Bft)
01.03.2008 09:40 18,4 C 8,4 C 46 % 67 % 997,3 hPa 0,0 l/m 32,8 km/h (5 Bft)
01.03.2008 09:42 18,4 C 8,5 C 46 % 67 % 997,3 hPa 0,0 l/m 11,9 km/h (2 Bft)
01.03.2008 09:44 18,4 C 8,5 C 46 % 67 % 997,3 hPa 0,0 l/m 11,9 km/h (2 Bft)
01.03.2008 09:46 18,4 C 8,5 C 46 % 66 % 997,3 hPa 0,0 l/m 14,8 km/h (3 Bft)
01.03.2008 09:48 18,3 C 8,5 C 46 % 66 % 997,3 hPa 0,0 l/m 11,2 km/h (2 Bft)
01.03.2008 09:50 18,3 C 8,5 C 46 % 66 % 997,3 hPa 0,0 l/m 0,4 km/h (0 Bft)
01.03.2008 09:52 18,3 C 8,5 C 46 % 66 % 997,3 hPa 0,0 l/m 30,2 km/h (5 Bft)
01.03.2008 09:54 18,3 C 8,5 C 46 % 66 % 997,3 hPa 0,0 l/m 11,9 km/h (2 Bft)
01.03.2008 09:56 18,3 C 8,5 C 46 % 66 % 998,4 hPa 0,0 l/m 14,0 km/h (3 Bft)
01.03.2008 09:58 18,2 C 8,5 C 46 % 66 % 998,4 hPa 0,0 l/m 13,3 km/h (3 Bft)
01.03.2008 10:00 18,2 C 8,6 C 46 % 66 % 998,3 hPa 0,0 l/m 14,8 km/h (3 Bft)
01.03.2008 10:02 18,2 C 8,5 C 46 % 66 % 998,4 hPa 0,0 l/m 18,4 km/h (3 Bft)
01.03.2008 10:04 18,2 C 8,5 C 46 % 66 % 998,4 hPa 0,0 l/m 9,4 km/h (2 Bft)
01.03.2008 10:06 18,2 C 8,6 C 46 % 66 % 998,3 hPa 0,0 l/m 1,8 km/h (1 Bft)
01.03.2008 10:08 18,2 C 8,6 C 46 % 66 % 998,3 hPa 0,0 l/m 6,8 km/h (2 Bft)
01.03.2008 10:10 18,2 C 8,6 C 46 % 66 % 998,3 hPa 0,0 l/m 12,2 km/h (2 Bft)
01.03.2008 10:12 18,2 C 8,6 C 46 % 66 % 998,3 hPa 0,0 l/m 11,2 km/h (2 Bft)
01.03.2008 10:14 18,1 C 8,6 C 46 % 66 % 998,3 hPa 0,0 l/m 11,2 km/h (2 Bft)
01.03.2008 10:16 18,2 C 8,6 C 46 % 66 % 998,3 hPa 0,0 l/m 1,4 km/h (1 Bft)
01.03.2008 10:18 18,2 C 8,7 C 46 % 66 % 998,3 hPa 0,0 l/m 4,7 km/h (1 Bft)
01.03.2008 10:20 18,2 C 8,7 C 46 % 66 % 998,3 hPa 0,0 l/m 1,4 km/h (1 Bft)
01.03.2008 10:22 18,2 C 8,7 C 46 % 66 % 998,3 hPa 0,0 l/m 27,7 km/h (4 Bft)
01.03.2008 10:24 18,2 C 8,7 C 46 % 66 % 998,3 hPa 0,0 l/m 11,9 km/h (2 Bft)
01.03.2008 10:26 18,2 C 8,7 C 46 % 67 % 998,3 hPa 0,0 l/m 13,3 km/h (3 Bft)
01.03.2008 10:28 18,2 C 8,7 C 46 % 67 % 998,3 hPa 0,0 l/m 9,0 km/h (2 Bft)
01.03.2008 10:30 18,2 C 8,7 C 46 % 67 % 998,3 hPa 0,0 l/m 20,5 km/h (4 Bft)
01.03.2008 10:32 18,2 C 8,7 C 46 % 67 % 998,3 hPa 0,0 l/m 10,8 km/h (2 Bft)
01.03.2008 10:34 18,3 C 8,7 C 46 % 67 % 999,4 hPa 0,0 l/m 17,3 km/h (3 Bft)
01.03.2008 10:36 18,3 C 8,8 C 46 % 67 % 999,3 hPa 0,0 l/m 9,0 km/h (2 Bft)
01.03.2008 10:38 18,3 C 8,7 C 46 % 67 % 999,4 hPa 0,0 l/m 13,7 km/h (3 Bft)
01.03.2008 10:40 18,3 C 8,7 C 46 % 67 % 999,4 hPa 0,0 l/m 4,3 km/h (1 Bft)
01.03.2008 10:42 18,4 C 8,6 C 46 % 67 % 999,4 hPa 0,0 l/m 8,3 km/h (2 Bft)
01.03.2008 10:44 18,4 C 8,6 C 46 % 67 % 999,4 hPa 0,0 l/m 8,3 km/h (2 Bft)
01.03.2008 10:46 18,4 C 8,6 C 46 % 67 % 999,4 hPa 0,0 l/m 8,3 km/h (2 Bft)
01.03.2008 10:48 18,4 C 8,6 C 46 % 68 % 999,4 hPa 0,0 l/m 1,4 km/h (1 Bft)
01.03.2008 10:50 18,4 C 8,6 C 46 % 68 % 999,4 hPa 0,0 l/m 8,3 km/h (2 Bft)
01.03.2008 10:52 18,4 C 8,6 C 46 % 68 % 999,4 hPa 0,0 l/m 1,8 km/h (1 Bft)
01.03.2008 10:54 18,4 C 8,5 C 46 % 68 % 999,4 hPa 0,0 l/m 1,8 km/h (1 Bft)
01.03.2008 10:56 18,4 C 8,5 C 46 % 68 % 999,4 hPa 0,0 l/m 11,2 km/h (2 Bft)
01.03.2008 10:58 18,4 C 8,5 C 46 % 68 % 999,4 hPa 0,0 l/m 13,0 km/h (3 Bft)
01.03.2008 11:00 18,4 C 8,5 C 46 % 68 % 999,4 hPa 0,0 l/m 2,2 km/h (1 Bft)
01.03.2008 11:02 18,4 C 8,5 C 46 % 68 % 999,4 hPa 0,0 l/m 10,8 km/h (2 Bft)
01.03.2008 11:04 18,4 C 8,5 C 46 % 68 % 1000,4 hPa 0,0 l/m 4,7 km/h (1 Bft)
01.03.2008 11:06 18,4 C 8,6 C 46 % 68 % 1000,4 hPa 0,0 l/m 25,2 km/h (4 Bft)
01.03.2008 11:08 18,3 C 8,6 C 46 % 68 % 1000,4 hPa 0,0 l/m 11,9 km/h (2 Bft)
01.03.2008 11:10 18,3 C 8,6 C 46 % 68 % 1000,4 hPa 0,0 l/m 14,8 km/h (3 Bft)
01.03.2008 11:12 18,3 C 8,6 C 46 % 68 % 1000,4 hPa 0,0 l/m 7,6 km/h (2 Bft)
01.03.2008 11:14 18,3 C 8,6 C 46 % 68 % 1000,4 hPa 0,0 l/m 7,6 km/h (2 Bft)
01.03.2008 11:16 18,3 C 8,6 C 46 % 68 % 1000,4 hPa 0,0 l/m 4,7 km/h (1 Bft)
01.03.2008 11:18 18,4 C 8,7 C 46 % 68 % 1000,4 hPa 0,0 l/m 0,0 km/h (0 Bft)
01.03.2008 11:20 18,4 C 8,8 C 46 % 68 % 1000,4 hPa 0,0 l/m 6,5 km/h (2 Bft)
01.03.2008 11:22 18,4 C 8,7 C 46 % 68 % 1000,4 hPa 0,0 l/m 16,9 km/h (3 Bft)
01.03.2008 11:24 18,4 C 8,7 C 46 % 67 % 1000,4 hPa 0,0 l/m 13,7 km/h (3 Bft)
01.03.2008 11:26 18,4 C 8,8 C 46 % 68 % 1000,4 hPa 0,0 l/m 3,6 km/h (1 Bft)
01.03.2008 11:28 18,4 C 8,8 C 46 % 68 % 1000,4 hPa 0,0 l/m 0,0 km/h (0 Bft)
01.03.2008 11:30 18,4 C 8,8 C 46 % 68 % 1000,4 hPa 0,0 l/m 5,4 km/h (1 Bft)
01.03.2008 11:32 18,4 C 8,8 C 46 % 68 % 1000,4 hPa 0,0 l/m 10,4 km/h (2 Bft)
01.03.2008 11:34 18,4 C 8,8 C 46 % 68 % 1000,4 hPa 0,0 l/m 10,1 km/h (2 Bft)
01.03.2008 11:36 18,5 C 8,8 C 46 % 68 % 1000,4 hPa 0,0 l/m 9,7 km/h (2 Bft)
01.03.2008 11:38 18,5 C 8,8 C 46 % 68 % 1000,4 hPa 0,0 l/m 12,6 km/h (3 Bft)
01.03.2008 11:40 18,5 C 8,8 C 46 % 68 % 1000,4 hPa 0,0 l/m 9,7 km/h (2 Bft)
01.03.2008 11:42 18,5 C 8,8 C 46 % 68 % 1000,4 hPa 0,0 l/m 12,6 km/h (3 Bft)
01.03.2008 11:44 18,5 C 8,8 C 46 % 68 % 1000,4 hPa 0,0 l/m 12,6 km/h (3 Bft)
01.03.2008 11:46 18,5 C 8,8 C 46 % 68 % 1000,4 hPa 0,0 l/m 13,7 km/h (3 Bft)
01.03.2008 11:48 18,5 C 8,8 C 46 % 68 % 1001,4 hPa 0,0 l/m 7,6 km/h (2 Bft)
01.03.2008 11:50 18,5 C 8,8 C 46 % 68 % 1001,4 hPa 0,0 l/m 0,7 km/h (0 Bft)
01.03.2008 11:52 18,6 C 8,8 C 46 % 68 % 1001,4 hPa 0,0 l/m 12,6 km/h (3 Bft)
01.03.2008 11:54 18,6 C 8,9 C 46 % 68 % 1001,4 hPa 0,0 l/m 12,2 km/h (2 Bft)
01.03.2008 11:56 18,6 C 8,9 C 46 % 68 % 1001,4 hPa 0,0 l/m 5,8 km/h (2 Bft)
01.03.2008 11:58 18,6 C 8,9 C 46 % 68 % 1001,4 hPa 0,0 l/m 8,3 km/h (2 Bft)
01.03.2008 12:00 18,6 C 8,9 C 46 % 68 % 1001,4 hPa 0,0 l/m 10,1 km/h (2 Bft)
01.03.2008 12:02 18,6 C 8,9 C 46 % 68 % 1001,4 hPa 0,0 l/m 12,6 km/h (3 Bft)
01.03.2008 12:04 18,6 C 9,0 C 46 % 67 % 1001,4 hPa 0,0 l/m 7,9 km/h (2 Bft)
01.03.2008 12:06 18,6 C 9,0 C 46 % 68 % 1001,4 hPa 0,0 l/m 6,5 km/h (2 Bft)
01.03.2008 12:08 18,6 C 9,1 C 46 % 68 % 1001,4 hPa 0,0 l/m 6,5 km/h (2 Bft)
01.03.2008 12:10 18,6 C 9,1 C 46 % 67 % 1001,4 hPa 0,0 l/m 1,4 km/h (1 Bft)
01.03.2008 12:12 18,6 C 9,1 C 46 % 67 % 1001,4 hPa 0,0 l/m 13,7 km/h (3 Bft)
01.03.2008 12:14 18,6 C 9,1 C 46 % 67 % 1001,4 hPa 0,0 l/m 13,7 km/h (3 Bft)
01.03.2008 12:16 18,6 C 9,1 C 46 % 67 % 1001,4 hPa 0,0 l/m 1,4 km/h (1 Bft)
01.03.2008 12:18 18,6 C 9,1 C 46 % 67 % 1001,4 hPa 0,0 l/m 9,7 km/h (2 Bft)
01.03.2008 12:20 18,6 C 9,2 C 46 % 67 % 1001,4 hPa 0,0 l/m 25,6 km/h (4 Bft)
01.03.2008 12:22 18,6 C 9,1 C 46 % 67 % 1001,4 hPa 0,0 l/m 0,0 km/h (0 Bft)
01.03.2008 12:24 18,6 C 9,2 C 46 % 67 % 1001,4 hPa 0,0 l/m 5,0 km/h (1 Bft)
01.03.2008 12:26 18,6 C 9,1 C 46 % 67 % 1001,4 hPa 0,0 l/m 6,8 km/h (2 Bft)
01.03.2008 12:28 18,6 C 9,1 C 46 % 67 % 1002,4 hPa 0,0 l/m 7,9 km/h (2 Bft)
01.03.2008 12:30 18,7 C 9,2 C 46 % 67 % 1002,4 hPa 0,0 l/m 12,6 km/h (3 Bft)
01.03.2008 12:32 18,6 C 9,2 C 46 % 67 % 1002,4 hPa 0,0 l/m 9,0 km/h (2 Bft)
01.03.2008 12:34 18,7 C 9,2 C 46 % 67 % 1002,4 hPa 0,0 l/m 13,0 km/h (3 Bft)
01.03.2008 12:36 18,6 C 9,2 C 46 % 67 % 1002,4 hPa 0,0 l/m 8,3 km/h (2 Bft)
01.03.2008 12:38 18,6 C 9,2 C 46 % 67 % 1002,4 hPa 0,0 l/m 6,8 km/h (2 Bft)
01.03.2008 12:40 18,6 C 9,3 C 46 % 67 % 1002,4 hPa 0,0 l/m 10,8 km/h (2 Bft)
01.03.2008 12:42 18,6 C 9,2 C 46 % 68 % 1002,4 hPa 0,0 l/m 3,2 km/h (1 Bft)
01.03.2008 12:44 18,6 C 9,2 C 46 % 68 % 1002,4 hPa 0,0 l/m 3,2 km/h (1 Bft)
01.03.2008 12:46 18,6 C 9,2 C 46 % 68 % 1002,4 hPa 0,0 l/m 3,6 km/h (1 Bft)
01.03.2008 12:48 18,6 C 9,2 C 46 % 68 % 1002,4 hPa 0,0 l/m 15,1 km/h (3 Bft)
01.03.2008 12:50 18,6 C 9,2 C 46 % 68 % 1002,4 hPa 0,0 l/m 7,9 km/h (2 Bft)
01.03.2008 12:52 18,6 C 9,2 C 46 % 68 % 1002,4 hPa 0,0 l/m 12,6 km/h (3 Bft)
01.03.2008 12:54 18,6 C 9,2 C 46 % 67 % 1002,4 hPa 0,0 l/m 6,5 km/h (2 Bft)
01.03.2008 12:56 18,6 C 9,2 C 46 % 67 % 1002,4 hPa 0,0 l/m 13,7 km/h (3 Bft)
01.03.2008 12:58 18,6 C 9,2 C 46 % 67 % 1002,4 hPa 0,0 l/m 11,5 km/h (2 Bft)
01.03.2008 13:00 18,5 C 9,3 C 46 % 67 % 1003,4 hPa 0,0 l/m 0,0 km/h (0 Bft)
01.03.2008 13:02 18,5 C 9,3 C 46 % 67 % 1002,4 hPa 0,0 l/m 8,3 km/h (2 Bft)
01.03.2008 13:04 18,5 C 9,3 C 46 % 67 % 1003,4 hPa 0,0 l/m 5,4 km/h (1 Bft)
01.03.2008 13:06 18,5 C 9,3 C 46 % 67 % 1003,4 hPa 0,0 l/m 7,6 km/h (2 Bft)
01.03.2008 13:08 18,5 C 9,3 C 46 % 67 % 1003,4 hPa 0,0 l/m 2,2 km/h (1 Bft)
01.03.2008 13:10 18,5 C 9,3 C 46 % 67 % 1003,4 hPa 0,0 l/m 6,1 km/h (2 Bft)
01.03.2008 13:12 18,5 C 9,3 C 46 % 67 % 1003,4 hPa 0,0 l/m 4,0 km/h (1 Bft)
01.03.2008 13:14 18,5 C 9,3 C 46 % 67 % 1003,4 hPa 0,0 l/m 4,0 km/h (1 Bft)
01.03.2008 13:16 18,5 C 9,3 C 46 % 67 % 1003,4 hPa 0,0 l/m 7,2 km/h (2 Bft)
01.03.2008 13:18 18,5 C 9,3 C 46 % 67 % 1003,4 hPa 0,0 l/m 7,2 km/h (2 Bft)
01.03.2008 13:20 18,5 C 9,3 C 46 % 67 % 1003,4 hPa 0,0 l/m 7,6 km/h (2 Bft)
01.03.2008 13:22 18,4 C 9,4 C 46 % 67 % 1003,4 hPa 0,0 l/m 10,4 km/h (2 Bft)
01.03.2008 13:24 18,4 C 9,4 C 46 % 67 % 1003,4 hPa 0,0 l/m 7,6 km/h (2 Bft)
01.03.2008 13:26 18,4 C 9,5 C 46 % 67 % 1003,4 hPa 0,0 l/m 5,0 km/h (1 Bft)
01.03.2008 13:28 18,5 C 9,5 C 46 % 67 % 1003,4 hPa 0,0 l/m 4,7 km/h (1 Bft)
01.03.2008 13:30 18,5 C 9,5 C 46 % 67 % 1003,4 hPa 0,0 l/m 10,8 km/h (2 Bft)
01.03.2008 13:32 18,5 C 9,6 C 46 % 66 % 1003,4 hPa 0,0 l/m 25,2 km/h (4 Bft)
01.03.2008 13:34 18,5 C 9,6 C 46 % 66 % 1003,4 hPa 0,0 l/m 16,9 km/h (3 Bft)
01.03.2008 13:36 18,5 C 9,6 C 46 % 66 % 1003,4 hPa 0,0 l/m 20,5 km/h (4 Bft)
01.03.2008 13:38 18,5 C 9,6 C 46 % 66 % 1003,4 hPa 0,0 l/m 1,4 km/h (1 Bft)
01.03.2008 13:40 18,5 C 9,6 C 46 % 66 % 1003,4 hPa 0,0 l/m 11,9 km/h (2 Bft)
01.03.2008 13:42 18,5 C 9,7 C 46 % 66 % 1003,4 hPa 0,0 l/m 0,7 km/h (0 Bft)
01.03.2008 13:44 18,5 C 9,7 C 46 % 66 % 1003,4 hPa 0,0 l/m 11,2 km/h (2 Bft)
01.03.2008 13:46 18,5 C 9,7 C 46 % 66 % 1003,4 hPa 0,0 l/m 11,2 km/h (2 Bft)
01.03.2008 13:48 18,5 C 9,8 C 46 % 65 % 1003,4 hPa 0,0 l/m 13,0 km/h (3 Bft)
01.03.2008 13:50 18,5 C 9,8 C 46 % 65 % 1003,4 hPa 0,0 l/m 0,0 km/h (0 Bft)
01.03.2008 13:52 18,5 C 9,9 C 46 % 65 % 1004,4 hPa 0,0 l/m 5,0 km/h (1 Bft)
01.03.2008 13:54 18,5 C 10,0 C 46 % 64 % 1004,4 hPa 0,0 l/m 7,6 km/h (2 Bft)
01.03.2008 13:56 18,5 C 10,1 C 46 % 63 % 1004,4 hPa 0,0 l/m 11,2 km/h (2 Bft)
01.03.2008 13:58 18,5 C 10,1 C 46 % 62 % 1004,4 hPa 0,0 l/m 19,1 km/h (3 Bft)
01.03.2008 14:00 18,5 C 10,2 C 46 % 61 % 1004,3 hPa 0,0 l/m 22,0 km/h (4 Bft)
01.03.2008 14:02 18,5 C 10,3 C 46 % 60 % 1004,3 hPa 0,0 l/m 10,8 km/h (2 Bft)
01.03.2008 14:04 18,6 C 10,3 C 46 % 60 % 1004,3 hPa 0,0 l/m 13,7 km/h (3 Bft)
01.03.2008 14:06 18,6 C 10,3 C 46 % 60 % 1004,3 hPa 0,0 l/m 11,2 km/h (2 Bft)
01.03.2008 14:08 18,6 C 10,4 C 46 % 59 % 1004,3 hPa 0,0 l/m 14,0 km/h (3 Bft)
01.03.2008 14:10 18,6 C 10,4 C 46 % 60 % 1004,3 hPa 0,0 l/m 2,5 km/h (1 Bft)
01.03.2008 14:12 18,6 C 10,4 C 46 % 59 % 1004,3 hPa 0,0 l/m 1,4 km/h (1 Bft)
01.03.2008 14:14 18,6 C 10,3 C 46 % 59 % 1004,3 hPa 0,0 l/m 11,9 km/h (2 Bft)
01.03.2008 14:16 18,6 C 10,3 C 46 % 59 % 1004,3 hPa 0,0 l/m 11,9 km/h (2 Bft)
01.03.2008 14:18 18,6 C 10,3 C 46 % 59 % 1004,3 hPa 0,0 l/m 16,2 km/h (3 Bft)
01.03.2008 14:20 18,6 C 10,4 C 46 % 59 % 1004,3 hPa 0,0 l/m 22,7 km/h (4 Bft)
01.03.2008 14:22 18,7 C 10,4 C 46 % 58 % 1004,3 hPa 0,0 l/m 14,4 km/h (3 Bft)
01.03.2008 14:24 18,7 C 10,5 C 46 % 58 % 1004,3 hPa 0,0 l/m 18,4 km/h (3 Bft)
01.03.2008 14:26 18,7 C 10,6 C 46 % 57 % 1004,3 hPa 0,0 l/m 19,1 km/h (3 Bft)
01.03.2008 14:28 18,7 C 10,6 C 46 % 58 % 1004,3 hPa 0,0 l/m 11,9 km/h (2 Bft)
01.03.2008 14:30 18,8 C 10,7 C 46 % 58 % 1004,3 hPa 0,0 l/m 4,0 km/h (1 Bft)
01.03.2008 14:32 18,8 C 10,7 C 46 % 58 % 1004,3 hPa 0,0 l/m 19,1 km/h (3 Bft)
01.03.2008 14:34 18,8 C 10,8 C 46 % 57 % 1004,3 hPa 0,0 l/m 15,1 km/h (3 Bft)
01.03.2008 14:36 18,8 C 10,8 C 46 % 57 % 1005,3 hPa 0,0 l/m 6,1 km/h (2 Bft)
01.03.2008 14:38 18,8 C 10,9 C 46 % 56 % 1005,3 hPa 0,0 l/m 1,1 km/h (1 Bft)
01.03.2008 14:40 18,8 C 10,9 C 46 % 56 % 1005,3 hPa 0,0 l/m 6,5 km/h (2 Bft)
01.03.2008 14:42 18,8 C 10,9 C 46 % 56 % 1005,3 hPa 0,0 l/m 2,5 km/h (1 Bft)
01.03.2008 14:44 18,9 C 10,9 C 46 % 56 % 1005,3 hPa 0,0 l/m 8,6 km/h (2 Bft)
01.03.2008 14:46 18,9 C 10,9 C 45 % 56 % 1005,3 hPa 0,0 l/m 8,6 km/h (2 Bft)
01.03.2008 14:48 18,9 C 10,9 C 45 % 55 % 1005,3 hPa 0,0 l/m 9,7 km/h (2 Bft)
01.03.2008 14:50 18,9 C 10,9 C 45 % 55 % 1005,3 hPa 0,0 l/m 11,5 km/h (2 Bft)
01.03.2008 14:52 18,9 C 10,9 C 45 % 55 % 1005,3 hPa 0,0 l/m 0,0 km/h (0 Bft)
01.03.2008 14:54 18,9 C 10,9 C 45 % 55 % 1005,3 hPa 0,0 l/m 10,4 km/h (2 Bft)
01.03.2008 14:56 18,9 C 10,8 C 45 % 55 % 1005,3 hPa 0,0 l/m 13,7 km/h (3 Bft)
01.03.2008 14:58 18,9 C 10,8 C 45 % 55 % 1005,3 hPa 0,0 l/m 9,0 km/h (2 Bft)
01.03.2008 15:00 19,0 C 10,8 C 45 % 55 % 1005,3 hPa 0,0 l/m 9,0 km/h (2 Bft)
01.03.2008 15:02 19,0 C 10,8 C 45 % 55 % 1005,3 hPa 0,0 l/m 10,4 km/h (2 Bft)
01.03.2008 15:04 19,0 C 10,8 C 45 % 54 % 1005,3 hPa 0,0 l/m 8,3 km/h (2 Bft)
01.03.2008 15:06 19,0 C 10,8 C 45 % 54 % 1005,3 hPa 0,0 l/m 12,6 km/h (3 Bft)
01.03.2008 15:08 19,0 C 10,8 C 45 % 54 % 1005,3 hPa 0,0 l/m 15,5 km/h (3 Bft)
01.03.2008 15:10 19,0 C 10,7 C 45 % 55 % 1006,4 hPa 0,0 l/m 11,5 km/h (2 Bft)
01.03.2008 15:12 19,0 C 10,7 C 45 % 55 % 1005,3 hPa 0,0 l/m 4,0 km/h (1 Bft)
01.03.2008 15:14 19,0 C 10,6 C 45 % 54 % 1006,4 hPa 0,0 l/m 18,0 km/h (3 Bft)
01.03.2008 15:16 19,0 C 10,6 C 45 % 54 % 1006,4 hPa 0,0 l/m 18,0 km/h (3 Bft)
01.03.2008 15:18 19,0 C 10,5 C 45 % 54 % 1006,4 hPa 0,0 l/m 7,6 km/h (2 Bft)
01.03.2008 15:20 19,0 C 10,5 C 45 % 54 % 1006,4 hPa 0,0 l/m 8,3 km/h (2 Bft)
01.03.2008 15:22 19,0 C 10,5 C 45 % 55 % 1006,4 hPa 0,0 l/m 14,4 km/h (3 Bft)
01.03.2008 15:24 19,0 C 10,5 C 45 % 55 % 1006,4 hPa 0,0 l/m 0,0 km/h (0 Bft)
01.03.2008 15:26 19,0 C 10,5 C 45 % 55 % 1006,4 hPa 0,0 l/m 1,1 km/h (1 Bft)
01.03.2008 15:28 19,0 C 10,5 C 45 % 54 % 1006,4 hPa 0,0 l/m 6,8 km/h (2 Bft)
01.03.2008 15:30 19,0 C 10,5 C 45 % 54 % 1006,4 hPa 0,0 l/m 7,2 km/h (2 Bft)
01.03.2008 15:32 19,0 C 10,4 C 45 % 54 % 1006,4 hPa 0,0 l/m 10,1 km/h (2 Bft)
01.03.2008 15:34 18,9 C 10,4 C 45 % 54 % 1006,4 hPa 0,0 l/m 7,6 km/h (2 Bft)
01.03.2008 15:36 18,9 C 10,4 C 45 % 54 % 1006,4 hPa 0,0 l/m 11,5 km/h (2 Bft)
01.03.2008 15:38 18,9 C 10,4 C 45 % 54 % 1006,4 hPa 0,0 l/m 15,5 km/h (3 Bft)
01.03.2008 15:40 18,9 C 10,4 C 45 % 54 % 1006,4 hPa 0,0 l/m 5,4 km/h (1 Bft)
01.03.2008 15:42 18,9 C 10,4 C 45 % 54 % 1006,4 hPa 0,0 l/m 20,5 km/h (4 Bft)
01.03.2008 15:44 18,9 C 10,4 C 45 % 54 % 1006,4 hPa 0,0 l/m 6,5 km/h (2 Bft)
01.03.2008 15:46 18,9 C 10,4 C 45 % 54 % 1006,4 hPa 0,0 l/m 6,5 km/h (2 Bft)
01.03.2008 15:48 18,9 C 10,4 C 45 % 54 % 1006,4 hPa 0,0 l/m 17,6 km/h (3 Bft)
01.03.2008 15:50 18,8 C 10,5 C 45 % 54 % 1006,4 hPa 0,0 l/m 13,0 km/h (3 Bft)
01.03.2008 15:52 18,8 C 10,4 C 45 % 54 % 1006,4 hPa 0,0 l/m 8,6 km/h (2 Bft)
01.03.2008 15:54 18,8 C 10,5 C 45 % 54 % 1006,4 hPa 0,0 l/m 3,6 km/h (1 Bft)
01.03.2008 15:56 18,8 C 10,5 C 45 % 55 % 1006,4 hPa 0,0 l/m 12,2 km/h (2 Bft)
01.03.2008 15:58 18,8 C 10,5 C 45 % 55 % 1006,4 hPa 0,0 l/m 3,6 km/h (1 Bft)
01.03.2008 16:00 18,8 C 10,5 C 45 % 55 % 1006,4 hPa 0,0 l/m 15,8 km/h (3 Bft)
01.03.2008 16:02 18,8 C 10,5 C 45 % 55 % 1006,4 hPa 0,0 l/m 8,3 km/h (2 Bft)
01.03.2008 16:04 18,8 C 10,5 C 45 % 55 % 1006,4 hPa 0,0 l/m 10,8 km/h (2 Bft)
01.03.2008 16:06 18,8 C 10,5 C 45 % 55 % 1006,4 hPa 0,0 l/m 5,8 km/h (2 Bft)
01.03.2008 16:08 18,8 C 10,5 C 45 % 55 % 1006,4 hPa 0,0 l/m 5,8 km/h (2 Bft)
01.03.2008 16:10 18,8 C 10,4 C 45 % 55 % 1006,4 hPa 0,0 l/m 1,4 km/h (1 Bft)
01.03.2008 16:12 18,8 C 10,4 C 45 % 54 % 1006,4 hPa 0,0 l/m 3,2 km/h (1 Bft)
01.03.2008 16:14 18,8 C 10,4 C 45 % 54 % 1006,4 hPa 0,0 l/m 4,3 km/h (1 Bft)
01.03.2008 16:16 18,7 C 10,4 C 45 % 54 % 1006,4 hPa 0,0 l/m 4,3 km/h (1 Bft)
01.03.2008 16:18 18,7 C 10,4 C 45 % 55 % 1006,4 hPa 0,0 l/m 2,5 km/h (1 Bft)
01.03.2008 16:20 18,7 C 10,4 C 45 % 55 % 1006,4 hPa 0,0 l/m 3,6 km/h (1 Bft)
01.03.2008 16:22 18,7 C 10,4 C 45 % 54 % 1006,4 hPa 0,0 l/m 13,0 km/h (3 Bft)
01.03.2008 16:24 18,7 C 10,4 C 45 % 54 % 1007,4 hPa 0,0 l/m 12,6 km/h (3 Bft)
01.03.2008 16:26 18,7 C 10,4 C 45 % 54 % 1006,4 hPa 0,0 l/m 8,6 km/h (2 Bft)
01.03.2008 16:28 18,7 C 10,4 C 45 % 54 % 1006,4 hPa 0,0 l/m 12,2 km/h (2 Bft)
01.03.2008 16:30 18,7 C 10,4 C 45 % 54 % 1007,4 hPa 0,0 l/m 12,2 km/h (2 Bft)
01.03.2008 16:32 18,6 C 10,4 C 45 % 54 % 1007,4 hPa 0,0 l/m 4,3 km/h (1 Bft)
01.03.2008 16:34 18,6 C 10,3 C 45 % 54 % 1007,4 hPa 0,0 l/m 11,5 km/h (2 Bft)
01.03.2008 16:36 18,6 C 10,3 C 45 % 54 % 1007,4 hPa 0,0 l/m 0,0 km/h (0 Bft)
01.03.2008 16:38 18,6 C 10,3 C 45 % 54 % 1007,4 hPa 0,0 l/m 14,8 km/h (3 Bft)
01.03.2008 16:40 18,6 C 10,3 C 45 % 54 % 1007,4 hPa 0,0 l/m 10,1 km/h (2 Bft)
01.03.2008 16:42 18,6 C 10,3 C 45 % 54 % 1007,4 hPa 0,0 l/m 1,8 km/h (1 Bft)
01.03.2008 16:44 18,6 C 10,3 C 45 % 54 % 1007,4 hPa 0,0 l/m 16,2 km/h (3 Bft)
01.03.2008 16:46 18,6 C 10,3 C 45 % 54 % 1007,4 hPa 0,0 l/m 16,2 km/h (3 Bft)
01.03.2008 16:48 18,6 C 10,3 C 45 % 54 % 1007,4 hPa 0,0 l/m 6,1 km/h (2 Bft)
01.03.2008 16:50 18,6 C 10,3 C 45 % 54 % 1007,4 hPa 0,0 l/m 5,4 km/h (1 Bft)
01.03.2008 16:52 18,6 C 10,3 C 45 % 54 % 1007,4 hPa 0,0 l/m 3,6 km/h (1 Bft)
01.03.2008 16:54 18,5 C 10,3 C 45 % 54 % 1007,4 hPa 0,0 l/m 16,6 km/h (3 Bft)
01.03.2008 16:56 18,5 C 10,3 C 45 % 54 % 1007,4 hPa 0,0 l/m 8,6 km/h (2 Bft)
01.03.2008 16:58 18,6 C 10,3 C 45 % 54 % 1007,4 hPa 0,0 l/m 0,0 km/h (0 Bft)
01.03.2008 17:00 18,5 C 10,3 C 45 % 54 % 1007,4 hPa 0,0 l/m 4,0 km/h (1 Bft)
01.03.2008 17:02 18,5 C 10,2 C 45 % 55 % 1007,4 hPa 0,0 l/m 2,9 km/h (1 Bft)
01.03.2008 17:04 18,5 C 10,3 C 45 % 55 % 1007,4 hPa 0,0 l/m 6,5 km/h (2 Bft)
01.03.2008 17:06 18,5 C 10,2 C 45 % 55 % 1007,4 hPa 0,0 l/m 0,0 km/h (0 Bft)
01.03.2008 17:08 18,5 C 10,3 C 45 % 55 % 1007,4 hPa 0,0 l/m 14,8 km/h (3 Bft)
01.03.2008 17:10 18,5 C 10,2 C 45 % 56 % 1007,4 hPa 0,0 l/m 2,5 km/h (1 Bft)
01.03.2008 17:12 18,5 C 10,3 C 45 % 56 % 1007,4 hPa 0,0 l/m 11,5 km/h (2 Bft)
01.03.2008 17:14 18,5 C 10,2 C 45 % 56 % 1007,4 hPa 0,0 l/m 6,1 km/h (2 Bft)
01.03.2008 17:16 18,5 C 10,2 C 45 % 56 % 1007,4 hPa 0,0 l/m 6,1 km/h (2 Bft)
01.03.2008 17:18 18,5 C 10,2 C 45 % 57 % 1007,4 hPa 0,0 l/m 0,0 km/h (0 Bft)
01.03.2008 17:20 18,5 C 10,2 C 45 % 57 % 1007,4 hPa 0,0 l/m 1,1 km/h (1 Bft)
01.03.2008 17:22 18,5 C 10,2 C 45 % 58 % 1007,4 hPa 0,0 l/m 0,0 km/h (0 Bft)
01.03.2008 17:24 18,5 C 10,2 C 45 % 59 % 1007,4 hPa 0,0 l/m 0,0 km/h (0 Bft)
01.03.2008 17:26 18,5 C 10,1 C 45 % 60 % 1007,4 hPa 0,0 l/m 9,0 km/h (2 Bft)
01.03.2008 17:28 18,5 C 10,0 C 45 % 60 % 1007,4 hPa 0,0 l/m 7,6 km/h (2 Bft)
01.03.2008 17:30 18,6 C 9,9 C 45 % 61 % 1007,4 hPa 0,0 l/m 5,8 km/h (2 Bft)
01.03.2008 17:32 18,6 C 9,9 C 45 % 61 % 1007,4 hPa 0,0 l/m 3,6 km/h (1 Bft)
01.03.2008 17:34 18,6 C 9,9 C 45 % 61 % 1007,4 hPa 0,0 l/m 5,4 km/h (1 Bft)
01.03.2008 17:36 18,6 C 9,8 C 45 % 62 % 1007,4 hPa 0,0 l/m 5,0 km/h (1 Bft)
01.03.2008 17:38 18,6 C 9,8 C 45 % 62 % 1007,4 hPa 0,0 l/m 3,6 km/h (1 Bft)
01.03.2008 17:40 18,6 C 9,8 C 45 % 63 % 1007,4 hPa 0,0 l/m 0,0 km/h (0 Bft)
01.03.2008 17:42 18,6 C 9,6 C 45 % 63 % 1007,4 hPa 0,0 l/m 2,9 km/h (1 Bft)
01.03.2008 17:44 18,6 C 9,6 C 45 % 64 % 1007,4 hPa 0,0 l/m 10,4 km/h (2 Bft)
01.03.2008 17:46 18,6 C 9,6 C 45 % 64 % 1007,4 hPa 0,0 l/m 10,4 km/h (2 Bft)
01.03.2008 17:48 18,6 C 9,6 C 45 % 65 % 1007,4 hPa 0,0 l/m 2,2 km/h (1 Bft)
01.03.2008 17:50 18,6 C 9,5 C 45 % 66 % 1007,4 hPa 0,0 l/m 8,3 km/h (2 Bft)
01.03.2008 17:52 18,6 C 9,5 C 45 % 67 % 1007,4 hPa 0,0 l/m 5,0 km/h (1 Bft)
01.03.2008 17:54 18,6 C 9,4 C 45 % 68 % 1007,4 hPa 0,0 l/m 0,0 km/h (0 Bft)
01.03.2008 17:56 18,6 C 9,3 C 45 % 69 % 1008,4 hPa 0,5 l/m 5,4 km/h (1 Bft)
01.03.2008 17:58 18,6 C 9,1 C 45 % 70 % 1007,4 hPa 0,0 l/m 7,6 km/h (2 Bft)
01.03.2008 18:00 18,6 C 8,9 C 45 % 70 % 1007,4 hPa 0,0 l/m 10,4 km/h (2 Bft)
01.03.2008 18:02 18,6 C 8,8 C 45 % 71 % 1007,4 hPa 0,0 l/m 2,5 km/h (1 Bft)
01.03.2008 18:04 18,6 C 8,7 C 45 % 71 % 1007,4 hPa 0,0 l/m 10,4 km/h (2 Bft)
01.03.2008 18:06 18,6 C 8,6 C 45 % 72 % 1007,4 hPa 0,0 l/m 6,1 km/h (2 Bft)
01.03.2008 18:08 18,6 C 8,5 C 45 % 72 % 1007,4 hPa 0,0 l/m 6,1 km/h (2 Bft)
01.03.2008 18:10 18,7 C 8,4 C 45 % 72 % 1007,4 hPa 0,0 l/m 1,1 km/h (1 Bft)
01.03.2008 18:12 18,6 C 8,4 C 45 % 73 % 1007,4 hPa 0,0 l/m 0,0 km/h (0 Bft)
01.03.2008 18:14 18,6 C 8,4 C 46 % 73 % 1007,4 hPa 0,0 l/m 0,0 km/h (0 Bft)
01.03.2008 18:16 18,6 C 8,4 C 46 % 73 % 1008,4 hPa 0,0 l/m 0,0 km/h (0 Bft)
01.03.2008 18:18 18,7 C 8,4 C 46 % 73 % 1008,4 hPa 0,0 l/m 0,0 km/h (0 Bft)
01.03.2008 18:20 18,6 C 8,4 C 46 % 73 % 1008,4 hPa 0,0 l/m 2,5 km/h (1 Bft)
01.03.2008 18:22 18,7 C 8,4 C 46 % 73 % 1008,4 hPa 0,0 l/m 1,1 km/h (1 Bft)
01.03.2008 18:24 18,7 C 8,4 C 46 % 73 % 1008,4 hPa 0,0 l/m 20,9 km/h (4 Bft)
01.03.2008 18:26 18,7 C 8,5 C 46 % 73 % 1008,4 hPa 0,0 l/m 0,0 km/h (0 Bft)
01.03.2008 18:28 18,7 C 8,6 C 46 % 73 % 1008,4 hPa 0,0 l/m 1,1 km/h (1 Bft)
01.03.2008 18:30 18,7 C 8,6 C 46 % 72 % 1008,4 hPa 0,0 l/m 9,7 km/h (2 Bft)
01.03.2008 18:32 18,8 C 8,7 C 46 % 72 % 1008,4 hPa 0,0 l/m 11,2 km/h (2 Bft)
01.03.2008 18:34 18,8 C 8,8 C 46 % 72 % 1008,4 hPa 0,0 l/m 7,2 km/h (2 Bft)
01.03.2008 18:36 18,8 C 8,8 C 46 % 72 % 1008,4 hPa 0,0 l/m 10,1 km/h (2 Bft)
01.03.2008 18:38 18,8 C 8,9 C 46 % 71 % 1008,4 hPa 0,0 l/m 15,5 km/h (3 Bft)
01.03.2008 18:40 18,8 C 8,9 C 46 % 71 % 1008,4 hPa 0,0 l/m 11,5 km/h (2 Bft)
01.03.2008 18:42 18,8 C 8,9 C 46 % 71 % 1008,4 hPa 0,0 l/m 4,7 km/h (1 Bft)
01.03.2008 18:44 18,9 C 8,9 C 46 % 71 % 1008,4 hPa 0,0 l/m 0,0 km/h (0 Bft)
01.03.2008 18:46 18,9 C 8,9 C 46 % 70 % 1008,4 hPa 0,0 l/m 0,0 km/h (0 Bft)
01.03.2008 18:48 18,9 C 8,9 C 46 % 70 % 1008,4 hPa 0,0 l/m 6,5 km/h (2 Bft)
01.03.2008 18:50 18,9 C 8,9 C 46 % 70 % 1008,4 hPa 0,0 l/m 18,0 km/h (3 Bft)
01.03.2008 18:52 18,9 C 8,9 C 46 % 70 % 1008,4 hPa 0,0 l/m 4,7 km/h (1 Bft)
01.03.2008 18:54 18,9 C 9,1 C 46 % 70 % 1008,4 hPa 0,0 l/m 0,4 km/h (0 Bft)
01.03.2008 18:56 18,9 C 9,1 C 46 % 70 % 1008,4 hPa 0,0 l/m 7,6 km/h (2 Bft)
01.03.2008 18:58 18,9 C 9,1 C 46 % 70 % 1008,4 hPa 0,0 l/m 0,0 km/h (0 Bft)
01.03.2008 19:00 18,9 C 9,1 C 46 % 69 % 1008,4 hPa 0,0 l/m 0,0 km/h (0 Bft)
01.03.2008 19:02 18,9 C 9,1 C 46 % 69 % 1008,4 hPa 0,0 l/m 0,0 km/h (0 Bft)
01.03.2008 19:04 18,9 C 9,1 C 46 % 69 % 1008,4 hPa 0,0 l/m 5,4 km/h (1 Bft)
01.03.2008 19:06 18,9 C 9,1 C 46 % 69 % 1008,4 hPa 0,0 l/m 12,6 km/h (3 Bft)
01.03.2008 19:08 18,8 C 9,1 C 46 % 69 % 1008,4 hPa 0,0 l/m 0,0 km/h (0 Bft)
01.03.2008 19:10 18,8 C 9,2 C 46 % 68 % 1008,4 hPa 0,0 l/m 7,6 km/h (2 Bft)
01.03.2008 19:12 18,8 C 9,2 C 46 % 68 % 1008,4 hPa 0,0 l/m 8,6 km/h (2 Bft)
01.03.2008 19:14 18,8 C 9,2 C 46 % 68 % 1008,4 hPa 0,0 l/m 6,5 km/h (2 Bft)
01.03.2008 19:16 18,8 C 9,2 C 46 % 68 % 1008,4 hPa 0,0 l/m 0,0 km/h (0 Bft)
01.03.2008 19:18 18,8 C 9,2 C 46 % 68 % 1008,4 hPa 0,0 l/m 0,0 km/h (0 Bft)
01.03.2008 19:20 18,8 C 9,2 C 46 % 68 % 1008,4 hPa 0,0 l/m 5,0 km/h (1 Bft)
01.03.2008 19:22 18,8 C 9,1 C 46 % 68 % 1008,4 hPa 0,0 l/m 0,4 km/h (0 Bft)
01.03.2008 19:24 18,8 C 9,2 C 46 % 68 % 1008,4 hPa 0,0 l/m 6,8 km/h (2 Bft)
01.03.2008 19:26 18,8 C 9,1 C 46 % 67 % 1008,4 hPa 0,0 l/m 7,9 km/h (2 Bft)
01.03.2008 19:28 18,8 C 9,2 C 46 % 67 % 1008,4 hPa 0,0 l/m 9,7 km/h (2 Bft)
01.03.2008 19:30 18,8 C 9,1 C 46 % 67 % 1008,4 hPa 0,0 l/m 9,0 km/h (2 Bft)
01.03.2008 19:32 18,8 C 9,2 C 46 % 67 % 1008,4 hPa 0,0 l/m 5,8 km/h (2 Bft)
01.03.2008 19:34 18,8 C 9,2 C 45 % 67 % 1008,4 hPa 0,0 l/m 0,0 km/h (0 Bft)
01.03.2008 19:36 18,8 C 9,2 C 46 % 67 % 1008,4 hPa 0,0 l/m 5,0 km/h (1 Bft)
01.03.2008 19:38 18,7 C 9,2 C 46 % 67 % 1009,4 hPa 0,0 l/m 10,1 km/h (2 Bft)
01.03.2008 19:40 18,8 C 9,2 C 46 % 67 % 1009,4 hPa 0,0 l/m 7,6 km/h (2 Bft)
01.03.2008 19:42 18,7 C 9,2 C 46 % 67 % 1009,4 hPa 0,0 l/m 11,9 km/h (2 Bft)
01.03.2008 19:44 18,7 C 9,2 C 45 % 67 % 1009,4 hPa 0,0 l/m 0,0 km/h (0 Bft)
01.03.2008 19:46 18,7 C 9,2 C 46 % 67 % 1009,4 hPa 0,0 l/m 0,7 km/h (0 Bft)
01.03.2008 19:48 18,7 C 9,2 C 45 % 67 % 1009,4 hPa 0,0 l/m 0,7 km/h (0 Bft)
01.03.2008 19:50 18,7 C 9,2 C 46 % 67 % 1009,4 hPa 0,0 l/m 0,0 km/h (0 Bft)
01.03.2008 19:52 18,7 C 9,2 C 45 % 67 % 1009,4 hPa 0,0 l/m 13,7 km/h (3 Bft)
01.03.2008 19:54 18,7 C 9,2 C 45 % 67 % 1009,4 hPa 0,0 l/m 12,2 km/h (2 Bft)
01.03.2008 19:56 18,7 C 9,2 C 45 % 67 % 1009,4 hPa 0,0 l/m 8,6 km/h (2 Bft)
01.03.2008 19:58 18,6 C 9,2 C 45 % 66 % 1009,4 hPa 0,0 l/m 10,4 km/h (2 Bft)
01.03.2008 20:00 18,6 C 9,2 C 45 % 66 % 1009,4 hPa 0,0 l/m 11,2 km/h (2 Bft)
01.03.2008 20:02 18,6 C 9,3 C 45 % 66 % 1009,4 hPa 0,0 l/m 8,3 km/h (2 Bft)
01.03.2008 20:04 18,6 C 9,2 C 45 % 66 % 1009,4 hPa 0,0 l/m 1,8 km/h (1 Bft)
01.03.2008 20:06 18,6 C 9,3 C 45 % 66 % 1008,4 hPa 0,0 l/m 4,7 km/h (1 Bft)
01.03.2008 20:08 18,6 C 9,3 C 45 % 66 % 1008,4 hPa 0,0 l/m 0,0 km/h (0 Bft)
01.03.2008 20:10 18,6 C 9,2 C 45 % 66 % 1008,4 hPa 0,0 l/m 3,2 km/h (1 Bft)
01.03.2008 20:12 18,6 C 9,2 C 45 % 66 % 1008,4 hPa 0,0 l/m 1,1 km/h (1 Bft)
01.03.2008 20:14 18,6 C 9,2 C 45 % 66 % 1008,4 hPa 0,0 l/m 0,7 km/h (0 Bft)
01.03.2008 20:16 18,6 C 9,2 C 45 % 66 % 1008,4 hPa 0,0 l/m 0,0 km/h (0 Bft)
01.03.2008 20:18 18,6 C 9,2 C 45 % 66 % 1008,4 hPa 0,0 l/m 0,0 km/h (0 Bft)
01.03.2008 20:20 18,6 C 9,2 C 45 % 65 % 1008,4 hPa 0,0 l/m 11,2 km/h (2 Bft)
01.03.2008 20:22 18,5 C 9,2 C 45 % 65 % 1008,4 hPa 0,0 l/m 11,9 km/h (2 Bft)
01.03.2008 20:24 18,5 C 9,2 C 45 % 65 % 1008,4 hPa 0,0 l/m 7,6 km/h (2 Bft)
01.03.2008 20:26 18,5 C 9,2 C 45 % 65 % 1008,4 hPa 0,0 l/m 6,1 km/h (2 Bft)
01.03.2008 20:28 18,5 C 9,2 C 45 % 65 % 1008,4 hPa 0,0 l/m 1,1 km/h (1 Bft)
01.03.2008 20:30 18,5 C 9,2 C 45 % 65 % 1008,4 hPa 0,0 l/m 0,0 km/h (0 Bft)
01.03.2008 20:32 18,5 C 9,1 C 45 % 65 % 1008,4 hPa 0,0 l/m 4,7 km/h (1 Bft)
01.03.2008 20:34 18,5 C 9,1 C 45 % 65 % 1008,4 hPa 0,0 l/m 3,2 km/h (1 Bft)
01.03.2008 20:36 18,5 C 9,1 C 45 % 65 % 1008,4 hPa 0,0 l/m 0,0 km/h (0 Bft)
01.03.2008 20:38 18,5 C 9,1 C 45 % 65 % 1008,4 hPa 0,0 l/m 0,0 km/h (0 Bft)
01.03.2008 20:40 18,5 C 9,1 C 45 % 65 % 1008,4 hPa 0,0 l/m 2,9 km/h (1 Bft)
01.03.2008 20:42 18,5 C 9,1 C 45 % 66 % 1008,4 hPa 0,0 l/m 1,4 km/h (1 Bft)
01.03.2008 20:44 18,5 C 9,0 C 45 % 65 % 1008,4 hPa 0,0 l/m 4,0 km/h (1 Bft)
01.03.2008 20:46 18,4 C 9,0 C 45 % 66 % 1008,4 hPa 0,0 l/m 4,3 km/h (1 Bft)
01.03.2008 20:48 18,5 C 9,0 C 45 % 66 % 1008,4 hPa 0,0 l/m 4,3 km/h (1 Bft)
01.03.2008 20:50 18,5 C 9,0 C 45 % 66 % 1008,4 hPa 0,0 l/m 5,4 km/h (1 Bft)
01.03.2008 20:52 18,4 C 8,9 C 45 % 66 % 1008,4 hPa 0,0 l/m 5,0 km/h (1 Bft)
01.03.2008 20:54 18,4 C 8,9 C 45 % 66 % 1008,4 hPa 0,0 l/m 0,0 km/h (0 Bft)
01.03.2008 20:56 18,4 C 8,9 C 45 % 66 % 1008,4 hPa 0,0 l/m 13,0 km/h (3 Bft)
01.03.2008 20:58 18,4 C 8,9 C 45 % 66 % 1008,4 hPa 0,0 l/m 1,4 km/h (1 Bft)
01.03.2008 21:00 18,4 C 8,9 C 45 % 66 % 1008,4 hPa 0,0 l/m 0,0 km/h (0 Bft)
01.03.2008 21:02 18,4 C 8,9 C 45 % 66 % 1008,4 hPa 0,0 l/m 0,0 km/h (0 Bft)
01.03.2008 21:04 18,4 C 8,9 C 45 % 66 % 1008,4 hPa 0,0 l/m 0,0 km/h (0 Bft)
01.03.2008 21:06 18,4 C 8,9 C 45 % 66 % 1008,4 hPa 0,0 l/m 3,6 km/h (1 Bft)
01.03.2008 21:08 18,4 C 8,9 C 45 % 67 % 1008,4 hPa 0,0 l/m 6,1 km/h (2 Bft)
01.03.2008 21:10 18,4 C 8,9 C 45 % 67 % 1008,4 hPa 0,0 l/m 8,6 km/h (2 Bft)
01.03.2008 21:12 18,4 C 8,9 C 45 % 67 % 1008,4 hPa 0,0 l/m 0,0 km/h (0 Bft)
01.03.2008 21:14 18,4 C 9,0 C 45 % 67 % 1009,4 hPa 0,0 l/m 0,0 km/h (0 Bft)
01.03.2008 21:16 18,4 C 8,9 C 45 % 67 % 1009,4 hPa 0,0 l/m 6,1 km/h (2 Bft)
01.03.2008 21:18 18,4 C 8,9 C 45 % 67 % 1009,4 hPa 0,0 l/m 6,1 km/h (2 Bft)
01.03.2008 21:20 18,4 C 8,9 C 45 % 67 % 1009,4 hPa 0,0 l/m 1,4 km/h (1 Bft)
01.03.2008 21:22 18,4 C 9,0 C 45 % 67 % 1009,4 hPa 0,0 l/m 4,0 km/h (1 Bft)
01.03.2008 21:24 18,4 C 9,0 C 45 % 68 % 1009,4 hPa 0,0 l/m 7,6 km/h (2 Bft)
01.03.2008 21:26 18,4 C 9,0 C 46 % 68 % 1009,4 hPa 0,0 l/m 0,0 km/h (0 Bft)
01.03.2008 21:28 18,4 C 9,0 C 45 % 68 % 1009,4 hPa 0,0 l/m 0,0 km/h (0 Bft)
01.03.2008 21:30 18,4 C 9,0 C 45 % 68 % 1009,4 hPa 0,0 l/m 0,0 km/h (0 Bft)
01.03.2008 21:32 18,4 C 9,0 C 46 % 68 % 1009,4 hPa 0,0 l/m 4,0 km/h (1 Bft)
01.03.2008 21:34 18,4 C 9,0 C 46 % 68 % 1009,4 hPa 0,0 l/m 0,0 km/h (0 Bft)
01.03.2008 21:36 18,4 C 9,0 C 46 % 69 % 1009,4 hPa 0,0 l/m 2,5 km/h (1 Bft)
01.03.2008 21:38 18,4 C 9,0 C 46 % 69 % 1009,4 hPa 0,0 l/m 0,0 km/h (0 Bft)
01.03.2008 21:40 18,4 C 9,0 C 46 % 69 % 1009,4 hPa 0,0 l/m 5,4 km/h (1 Bft)
01.03.2008 21:42 18,4 C 9,0 C 45 % 69 % 1009,4 hPa 0,0 l/m 0,0 km/h (0 Bft)
01.03.2008 21:44 18,4 C 9,0 C 46 % 69 % 1009,4 hPa 0,0 l/m 10,4 km/h (2 Bft)
01.03.2008 21:46 18,4 C 8,9 C 46 % 69 % 1009,4 hPa 0,0 l/m 0,4 km/h (0 Bft)
01.03.2008 21:48 18,3 C 8,9 C 46 % 69 % 1009,4 hPa 0,0 l/m 0,4 km/h (0 Bft)
01.03.2008 21:50 18,4 C 9,0 C 46 % 69 % 1009,4 hPa 0,0 l/m 4,0 km/h (1 Bft)
01.03.2008 21:52 18,3 C 8,9 C 46 % 69 % 1009,4 hPa 0,0 l/m 10,4 km/h (2 Bft)
01.03.2008 21:54 18,3 C 8,9 C 46 % 69 % 1009,4 hPa 0,0 l/m 5,8 km/h (2 Bft)
01.03.2008 21:56 18,4 C 8,9 C 46 % 69 % 1009,4 hPa 0,0 l/m 10,4 km/h (2 Bft)
01.03.2008 21:58 18,3 C 8,9 C 46 % 69 % 1009,4 hPa 0,0 l/m 0,0 km/h (0 Bft)
01.03.2008 22:00 18,3 C 8,9 C 46 % 69 % 1009,4 hPa 0,0 l/m 6,5 km/h (2 Bft)
01.03.2008 22:02 18,3 C 8,9 C 46 % 69 % 1009,4 hPa 0,0 l/m 8,3 km/h (2 Bft)
01.03.2008 22:04 18,3 C 8,9 C 46 % 69 % 1008,4 hPa 0,0 l/m 9,7 km/h (2 Bft)
01.03.2008 22:06 18,3 C 8,9 C 46 % 69 % 1008,4 hPa 0,0 l/m 1,1 km/h (1 Bft)
01.03.2008 22:08 18,3 C 8,9 C 46 % 69 % 1008,4 hPa 0,0 l/m 6,5 km/h (2 Bft)
01.03.2008 22:10 18,3 C 8,9 C 46 % 69 % 1008,4 hPa 0,0 l/m 11,9 km/h (2 Bft)
01.03.2008 22:12 18,3 C 8,9 C 46 % 69 % 1008,4 hPa 0,0 l/m 14,8 km/h (3 Bft)
01.03.2008 22:14 18,3 C 8,9 C 46 % 69 % 1008,4 hPa 0,0 l/m 3,6 km/h (1 Bft)
01.03.2008 22:16 18,3 C 8,9 C 46 % 69 % 1008,4 hPa 0,0 l/m 9,0 km/h (2 Bft)
01.03.2008 22:18 18,3 C 8,9 C 46 % 69 % 1008,4 hPa 0,0 l/m 9,0 km/h (2 Bft)
01.03.2008 22:20 18,3 C 8,9 C 46 % 69 % 1008,4 hPa 0,0 l/m 9,0 km/h (2 Bft)
01.03.2008 22:22 18,3 C 8,9 C 46 % 69 % 1008,4 hPa 0,0 l/m 0,0 km/h (0 Bft)
01.03.2008 22:24 18,3 C 8,9 C 46 % 69 % 1008,4 hPa 0,0 l/m 1,4 km/h (1 Bft)
01.03.2008 22:26 18,3 C 8,8 C 46 % 69 % 1008,4 hPa 0,0 l/m 9,4 km/h (2 Bft)
01.03.2008 22:28 18,3 C 8,8 C 46 % 69 % 1008,4 hPa 0,0 l/m 12,2 km/h (2 Bft)
01.03.2008 22:30 18,3 C 8,8 C 46 % 69 % 1008,4 hPa 0,0 l/m 0,7 km/h (0 Bft)
01.03.2008 22:32 18,3 C 8,8 C 46 % 69 % 1008,4 hPa 0,0 l/m 5,0 km/h (1 Bft)
01.03.2008 22:34 18,3 C 8,8 C 46 % 69 % 1008,4 hPa 0,0 l/m 7,2 km/h (2 Bft)
01.03.2008 22:36 18,3 C 8,7 C 46 % 69 % 1008,4 hPa 0,0 l/m 0,0 km/h (0 Bft)
01.03.2008 22:38 18,3 C 8,7 C 46 % 69 % 1008,4 hPa 0,0 l/m 10,1 km/h (2 Bft)
01.03.2008 22:40 18,3 C 8,7 C 46 % 70 % 1008,4 hPa 0,0 l/m 1,1 km/h (1 Bft)
01.03.2008 22:42 18,3 C 8,6 C 46 % 70 % 1008,4 hPa 0,0 l/m 6,8 km/h (2 Bft)
01.03.2008 22:44 18,3 C 8,6 C 46 % 70 % 1008,4 hPa 0,0 l/m 15,8 km/h (3 Bft)
01.03.2008 22:46 18,3 C 8,6 C 46 % 70 % 1008,4 hPa 0,0 l/m 9,7 km/h (2 Bft)
01.03.2008 22:48 18,3 C 8,6 C 46 % 70 % 1008,4 hPa 0,0 l/m 9,7 km/h (2 Bft)
01.03.2008 22:50 18,3 C 8,6 C 46 % 70 % 1008,4 hPa 0,0 l/m 0,0 km/h (0 Bft)
01.03.2008 22:52 18,2 C 8,6 C 46 % 70 % 1008,4 hPa 0,0 l/m 0,0 km/h (0 Bft)
01.03.2008 22:54 18,2 C 8,5 C 46 % 70 % 1008,4 hPa 0,0 l/m 4,3 km/h (1 Bft)
01.03.2008 22:56 18,3 C 8,5 C 46 % 70 % 1008,4 hPa 0,0 l/m 0,0 km/h (0 Bft)
01.03.2008 22:58 18,3 C 8,5 C 46 % 70 % 1007,4 hPa 0,0 l/m 8,3 km/h (2 Bft)
01.03.2008 23:00 18,3 C 8,4 C 46 % 70 % 1008,4 hPa 0,0 l/m 1,1 km/h (1 Bft)
01.03.2008 23:02 18,3 C 8,4 C 46 % 70 % 1008,4 hPa 0,0 l/m 8,3 km/h (2 Bft)
01.03.2008 23:04 18,3 C 8,4 C 46 % 70 % 1008,4 hPa 0,0 l/m 7,9 km/h (2 Bft)
01.03.2008 23:06 18,2 C 8,4 C 46 % 70 % 1008,4 hPa 0,0 l/m 18,7 km/h (3 Bft)
01.03.2008 23:08 18,3 C 8,3 C 46 % 70 % 1008,4 hPa 0,0 l/m 4,3 km/h (1 Bft)
01.03.2008 23:10 18,2 C 8,3 C 46 % 70 % 1008,4 hPa 0,0 l/m 11,2 km/h (2 Bft)
01.03.2008 23:12 18,2 C 8,3 C 46 % 71 % 1008,4 hPa 0,0 l/m 6,8 km/h (2 Bft)
01.03.2008 23:14 18,2 C 8,3 C 46 % 71 % 1008,4 hPa 0,0 l/m 1,1 km/h (1 Bft)
01.03.2008 23:16 18,2 C 8,3 C 46 % 71 % 1008,4 hPa 0,0 l/m 1,8 km/h (1 Bft)
01.03.2008 23:18 18,2 C 8,2 C 46 % 71 % 1008,4 hPa 0,0 l/m 1,8 km/h (1 Bft)
01.03.2008 23:20 18,2 C 8,2 C 46 % 71 % 1008,4 hPa 0,0 l/m 15,5 km/h (3 Bft)
01.03.2008 23:22 18,2 C 8,2 C 46 % 71 % 1008,4 hPa 0,0 l/m 1,8 km/h (1 Bft)
01.03.2008 23:24 18,2 C 8,2 C 46 % 71 % 1008,4 hPa 0,0 l/m 10,8 km/h (2 Bft)
01.03.2008 23:26 18,2 C 8,2 C 46 % 71 % 1008,4 hPa 0,0 l/m 9,4 km/h (2 Bft)
01.03.2008 23:28 18,2 C 8,2 C 46 % 71 % 1008,4 hPa 0,0 l/m 9,4 km/h (2 Bft)
01.03.2008 23:30 18,2 C 8,2 C 46 % 71 % 1008,4 hPa 0,0 l/m 6,5 km/h (2 Bft)
01.03.2008 23:32 18,2 C 8,2 C 46 % 71 % 1007,4 hPa 0,0 l/m 0,0 km/h (0 Bft)
01.03.2008 23:34 18,2 C 8,2 C 46 % 71 % 1008,4 hPa 0,0 l/m 0,0 km/h (0 Bft)
01.03.2008 23:36 18,2 C 8,2 C 46 % 71 % 1008,4 hPa 0,0 l/m 10,8 km/h (2 Bft)
01.03.2008 23:38 18,2 C 8,2 C 46 % 72 % 1008,4 hPa 0,0 l/m 10,4 km/h (2 Bft)
01.03.2008 23:40 18,2 C 8,2 C 46 % 72 % 1008,4 hPa 0,0 l/m 3,2 km/h (1 Bft)
01.03.2008 23:42 18,2 C 8,2 C 46 % 72 % 1008,4 hPa 0,0 l/m 11,9 km/h (2 Bft)
01.03.2008 23:44 18,2 C 8,2 C 46 % 72 % 1008,4 hPa 0,0 l/m 5,4 km/h (1 Bft)
01.03.2008 23:46 18,2 C 8,2 C 46 % 72 % 1008,4 hPa 0,0 l/m 5,8 km/h (2 Bft)
01.03.2008 23:48 18,2 C 8,2 C 46 % 72 % 1008,4 hPa 0,0 l/m 9,4 km/h (2 Bft)
01.03.2008 23:50 18,2 C 8,2 C 46 % 72 % 1008,4 hPa 0,0 l/m 9,4 km/h (2 Bft)
01.03.2008 23:52 18,2 C 8,2 C 46 % 72 % 1008,4 hPa 0,0 l/m 8,3 km/h (2 Bft)
01.03.2008 23:54 18,2 C 8,2 C 46 % 72 % 1008,4 hPa 0,0 l/m 11,5 km/h (2 Bft)
01.03.2008 23:56 18,2 C 8,1 C 46 % 72 % 1007,4 hPa 0,0 l/m 3,6 km/h (1 Bft)
01.03.2008 23:58 18,2 C 8,1 C 46 % 72 % 1007,4 hPa 0,0 l/m 6,8 km/h (2 Bft)
_ Min-Zeit 04:50 05:28 14:46 15:04 04:24 - 07:58
Minimum _ 17,4 C 6,3 C 45 % 54 % 989,3 hPa - 0,0 km/h (0 Bft)
_ Max-Zeit 15:00 14:38 03:24 03:40 19:38 00:06 08:48
Maximum _ 19,0 C 10,9 C 51 % 88 % 1009,4 hPa 0,5 l/m 36,0 km/h
N-NW (5 Bft)
Durchschnitt _ 18,2 C 9,1 C 47 % 71 % 1000,8 hPa #5,7 l/m 9,1 km/h (2 Bft)
© 2012 W. Hausmann